<?xml version="1.0" encoding="UTF-8" standalone="no" ?>
<gpx xmlns="http://www.topografix.com/GPX/1/1" xmlns:xsi="http://www.w3.org/2001/XMLSchema-instance" xsi:schemaLocation="http://www.topografix.com/GPX/1/1 http://www.topografix.com/GPX/1/1/gpx.xsd" version="1.1" creator="VisuGPX - https://www.visugpx.com">
  <metadata>
    <name>RANDONNEE GERUGE </name>
    <desc><![CDATA[Nous n\'avons pas pu admirer la plaine de Bresse car le soleil n\'a 
pas voulu se lever.]]></desc>
  </metadata>
  <trk>
    <name><![CDATA[Tracé actuel: 05 DEC 2013 13:30]]></name>
    <trkseg>
      <trkpt lat="46.62783" lon="5.52905">
        <ele>439.94</ele>
        <time>2013-12-05T12:30:43Z</time>
      </trkpt>
      <trkpt lat="46.62781" lon="5.52906">
        <ele>439.94</ele>
        <time>2013-12-05T12:31:11Z</time>
      </trkpt>
      <trkpt lat="46.62782" lon="5.52907">
        <ele>439.94</ele>
        <time>2013-12-05T12:31:36Z</time>
      </trkpt>
      <trkpt lat="46.62782" lon="5.52909">
        <ele>439.94</ele>
        <time>2013-12-05T12:31:59Z</time>
      </trkpt>
      <trkpt lat="46.62782" lon="5.52907">
        <ele>439.94</ele>
        <time>2013-12-05T12:32:26Z</time>
      </trkpt>
      <trkpt lat="46.62782" lon="5.52907">
        <ele>439.94</ele>
        <time>2013-12-05T12:32:46Z</time>
      </trkpt>
      <trkpt lat="46.6278" lon="5.52905">
        <ele>439.94</ele>
        <time>2013-12-05T12:33:11Z</time>
      </trkpt>
      <trkpt lat="46.62781" lon="5.52905">
        <ele>439.94</ele>
        <time>2013-12-05T12:33:30Z</time>
      </trkpt>
      <trkpt lat="46.62781" lon="5.52904">
        <ele>438.5</ele>
        <time>2013-12-05T12:33:34Z</time>
      </trkpt>
      <trkpt lat="46.62782" lon="5.52913">
        <ele>439.46</ele>
        <time>2013-12-05T12:33:47Z</time>
      </trkpt>
      <trkpt lat="46.62774" lon="5.5291">
        <ele>439.46</ele>
        <time>2013-12-05T12:33:58Z</time>
      </trkpt>
      <trkpt lat="46.62771" lon="5.52905">
        <ele>439.46</ele>
        <time>2013-12-05T12:34:10Z</time>
      </trkpt>
      <trkpt lat="46.62773" lon="5.52902">
        <ele>438.98</ele>
        <time>2013-12-05T12:34:35Z</time>
      </trkpt>
      <trkpt lat="46.62776" lon="5.52894">
        <ele>438.98</ele>
        <time>2013-12-05T12:34:52Z</time>
      </trkpt>
      <trkpt lat="46.62778" lon="5.52898">
        <ele>438.98</ele>
        <time>2013-12-05T12:35:08Z</time>
      </trkpt>
      <trkpt lat="46.62779" lon="5.52897">
        <ele>438.98</ele>
        <time>2013-12-05T12:35:35Z</time>
      </trkpt>
      <trkpt lat="46.62778" lon="5.529">
        <ele>438.98</ele>
        <time>2013-12-05T12:35:54Z</time>
      </trkpt>
      <trkpt lat="46.62779" lon="5.52895">
        <ele>438.98</ele>
        <time>2013-12-05T12:36:11Z</time>
      </trkpt>
      <trkpt lat="46.62781" lon="5.52895">
        <ele>438.98</ele>
        <time>2013-12-05T12:36:28Z</time>
      </trkpt>
      <trkpt lat="46.62779" lon="5.52895">
        <ele>438.98</ele>
        <time>2013-12-05T12:36:47Z</time>
      </trkpt>
      <trkpt lat="46.62777" lon="5.52897">
        <ele>438.98</ele>
        <time>2013-12-05T12:37:17Z</time>
      </trkpt>
      <trkpt lat="46.62776" lon="5.52894">
        <ele>439.46</ele>
        <time>2013-12-05T12:37:49Z</time>
      </trkpt>
      <trkpt lat="46.62776" lon="5.52893">
        <ele>439.46</ele>
        <time>2013-12-05T12:38:07Z</time>
      </trkpt>
      <trkpt lat="46.62776" lon="5.52894">
        <ele>439.46</ele>
        <time>2013-12-05T12:38:22Z</time>
      </trkpt>
      <trkpt lat="46.62776" lon="5.52894">
        <ele>439.46</ele>
        <time>2013-12-05T12:38:41Z</time>
      </trkpt>
      <trkpt lat="46.62775" lon="5.52895">
        <ele>439.46</ele>
        <time>2013-12-05T12:39:00Z</time>
      </trkpt>
      <trkpt lat="46.62775" lon="5.52895">
        <ele>439.46</ele>
        <time>2013-12-05T12:39:15Z</time>
      </trkpt>
      <trkpt lat="46.62776" lon="5.52895">
        <ele>440.42</ele>
        <time>2013-12-05T12:39:19Z</time>
      </trkpt>
      <trkpt lat="46.62778" lon="5.52894">
        <ele>440.42</ele>
        <time>2013-12-05T12:39:39Z</time>
      </trkpt>
      <trkpt lat="46.62777" lon="5.52894">
        <ele>440.42</ele>
        <time>2013-12-05T12:40:00Z</time>
      </trkpt>
      <trkpt lat="46.62776" lon="5.52893">
        <ele>440.42</ele>
        <time>2013-12-05T12:40:31Z</time>
      </trkpt>
      <trkpt lat="46.62777" lon="5.52894">
        <ele>440.9</ele>
        <time>2013-12-05T12:40:56Z</time>
      </trkpt>
      <trkpt lat="46.62776" lon="5.52894">
        <ele>439.46</ele>
        <time>2013-12-05T12:41:16Z</time>
      </trkpt>
      <trkpt lat="46.62775" lon="5.52894">
        <ele>439.46</ele>
        <time>2013-12-05T12:41:35Z</time>
      </trkpt>
      <trkpt lat="46.62776" lon="5.52894">
        <ele>439.46</ele>
        <time>2013-12-05T12:41:51Z</time>
      </trkpt>
      <trkpt lat="46.62775" lon="5.52895">
        <ele>439.46</ele>
        <time>2013-12-05T12:42:05Z</time>
      </trkpt>
      <trkpt lat="46.62776" lon="5.52895">
        <ele>439.46</ele>
        <time>2013-12-05T12:42:23Z</time>
      </trkpt>
      <trkpt lat="46.62773" lon="5.52896">
        <ele>439.46</ele>
        <time>2013-12-05T12:42:37Z</time>
      </trkpt>
      <trkpt lat="46.62769" lon="5.52893">
        <ele>439.46</ele>
        <time>2013-12-05T12:42:51Z</time>
      </trkpt>
      <trkpt lat="46.62769" lon="5.52893">
        <ele>439.46</ele>
        <time>2013-12-05T12:43:04Z</time>
      </trkpt>
      <trkpt lat="46.62771" lon="5.52896">
        <ele>439.46</ele>
        <time>2013-12-05T12:43:23Z</time>
      </trkpt>
      <trkpt lat="46.62769" lon="5.529">
        <ele>440.9</ele>
        <time>2013-12-05T12:43:36Z</time>
      </trkpt>
      <trkpt lat="46.62775" lon="5.52896">
        <ele>440.9</ele>
        <time>2013-12-05T12:43:46Z</time>
      </trkpt>
      <trkpt lat="46.62782" lon="5.52883">
        <ele>440.9</ele>
        <time>2013-12-05T12:44:01Z</time>
      </trkpt>
      <trkpt lat="46.62785" lon="5.52868">
        <ele>438.5</ele>
        <time>2013-12-05T12:44:14Z</time>
      </trkpt>
      <trkpt lat="46.62785" lon="5.52858">
        <ele>437.06</ele>
        <time>2013-12-05T12:44:23Z</time>
      </trkpt>
      <trkpt lat="46.62777" lon="5.52852">
        <ele>436.1</ele>
        <time>2013-12-05T12:44:38Z</time>
      </trkpt>
      <trkpt lat="46.62774" lon="5.52847">
        <ele>435.61</ele>
        <time>2013-12-05T12:44:54Z</time>
      </trkpt>
      <trkpt lat="46.62774" lon="5.52847">
        <ele>436.1</ele>
        <time>2013-12-05T12:45:01Z</time>
      </trkpt>
      <trkpt lat="46.62774" lon="5.52847">
        <ele>434.65</ele>
        <time>2013-12-05T12:45:06Z</time>
      </trkpt>
      <trkpt lat="46.62773" lon="5.52847">
        <ele>434.17</ele>
        <time>2013-12-05T12:45:11Z</time>
      </trkpt>
      <trkpt lat="46.62773" lon="5.52846">
        <ele>436.58</ele>
        <time>2013-12-05T12:45:13Z</time>
      </trkpt>
      <trkpt lat="46.62773" lon="5.52847">
        <ele>436.58</ele>
        <time>2013-12-05T12:45:30Z</time>
      </trkpt>
      <trkpt lat="46.62775" lon="5.52846">
        <ele>435.61</ele>
        <time>2013-12-05T12:45:56Z</time>
      </trkpt>
      <trkpt lat="46.62774" lon="5.52847">
        <ele>435.61</ele>
        <time>2013-12-05T12:46:17Z</time>
      </trkpt>
      <trkpt lat="46.62776" lon="5.52846">
        <ele>435.61</ele>
        <time>2013-12-05T12:46:44Z</time>
      </trkpt>
      <trkpt lat="46.62773" lon="5.52843">
        <ele>435.61</ele>
        <time>2013-12-05T12:47:01Z</time>
      </trkpt>
      <trkpt lat="46.62772" lon="5.52843">
        <ele>435.61</ele>
        <time>2013-12-05T12:47:16Z</time>
      </trkpt>
      <trkpt lat="46.62761" lon="5.52837">
        <ele>435.13</ele>
        <time>2013-12-05T12:47:30Z</time>
      </trkpt>
      <trkpt lat="46.62758" lon="5.52835">
        <ele>434.65</ele>
        <time>2013-12-05T12:47:34Z</time>
      </trkpt>
      <trkpt lat="46.62739" lon="5.52824">
        <ele>432.73</ele>
        <time>2013-12-05T12:47:51Z</time>
      </trkpt>
      <trkpt lat="46.62724" lon="5.52815">
        <ele>431.29</ele>
        <time>2013-12-05T12:48:06Z</time>
      </trkpt>
      <trkpt lat="46.62706" lon="5.52803">
        <ele>430.81</ele>
        <time>2013-12-05T12:48:23Z</time>
      </trkpt>
      <trkpt lat="46.62689" lon="5.52793">
        <ele>429.37</ele>
        <time>2013-12-05T12:48:38Z</time>
      </trkpt>
      <trkpt lat="46.62675" lon="5.52781">
        <ele>428.4</ele>
        <time>2013-12-05T12:48:52Z</time>
      </trkpt>
      <trkpt lat="46.62669" lon="5.52761">
        <ele>427.44</ele>
        <time>2013-12-05T12:49:07Z</time>
      </trkpt>
      <trkpt lat="46.6267" lon="5.52761">
        <ele>427.44</ele>
        <time>2013-12-05T12:49:32Z</time>
      </trkpt>
      <trkpt lat="46.6267" lon="5.52762">
        <ele>427.44</ele>
        <time>2013-12-05T12:49:39Z</time>
      </trkpt>
      <trkpt lat="46.62667" lon="5.5274">
        <ele>426.48</ele>
        <time>2013-12-05T12:49:52Z</time>
      </trkpt>
      <trkpt lat="46.62666" lon="5.52711">
        <ele>426</ele>
        <time>2013-12-05T12:50:07Z</time>
      </trkpt>
      <trkpt lat="46.6267" lon="5.52674">
        <ele>425.04</ele>
        <time>2013-12-05T12:50:26Z</time>
      </trkpt>
      <trkpt lat="46.62673" lon="5.52652">
        <ele>425.04</ele>
        <time>2013-12-05T12:50:40Z</time>
      </trkpt>
      <trkpt lat="46.62674" lon="5.5264">
        <ele>425.04</ele>
        <time>2013-12-05T12:50:47Z</time>
      </trkpt>
      <trkpt lat="46.6268" lon="5.52606">
        <ele>425.52</ele>
        <time>2013-12-05T12:51:05Z</time>
      </trkpt>
      <trkpt lat="46.62684" lon="5.52575">
        <ele>426.96</ele>
        <time>2013-12-05T12:51:22Z</time>
      </trkpt>
      <trkpt lat="46.6268" lon="5.52548">
        <ele>428.4</ele>
        <time>2013-12-05T12:51:39Z</time>
      </trkpt>
      <trkpt lat="46.6267" lon="5.52526">
        <ele>429.85</ele>
        <time>2013-12-05T12:51:56Z</time>
      </trkpt>
      <trkpt lat="46.62659" lon="5.52507">
        <ele>430.81</ele>
        <time>2013-12-05T12:52:12Z</time>
      </trkpt>
      <trkpt lat="46.62647" lon="5.52487">
        <ele>432.25</ele>
        <time>2013-12-05T12:52:27Z</time>
      </trkpt>
      <trkpt lat="46.62634" lon="5.52469">
        <ele>433.21</ele>
        <time>2013-12-05T12:52:44Z</time>
      </trkpt>
      <trkpt lat="46.62631" lon="5.52467">
        <ele>433.21</ele>
        <time>2013-12-05T12:52:47Z</time>
      </trkpt>
      <trkpt lat="46.62617" lon="5.52449">
        <ele>434.17</ele>
        <time>2013-12-05T12:53:05Z</time>
      </trkpt>
      <trkpt lat="46.62605" lon="5.52436">
        <ele>435.13</ele>
        <time>2013-12-05T12:53:18Z</time>
      </trkpt>
      <trkpt lat="46.62589" lon="5.52415">
        <ele>436.1</ele>
        <time>2013-12-05T12:53:35Z</time>
      </trkpt>
      <trkpt lat="46.62571" lon="5.52405">
        <ele>437.06</ele>
        <time>2013-12-05T12:53:51Z</time>
      </trkpt>
      <trkpt lat="46.62553" lon="5.52393">
        <ele>438.02</ele>
        <time>2013-12-05T12:54:08Z</time>
      </trkpt>
      <trkpt lat="46.6253" lon="5.5238">
        <ele>439.46</ele>
        <time>2013-12-05T12:54:28Z</time>
      </trkpt>
      <trkpt lat="46.62513" lon="5.52366">
        <ele>440.9</ele>
        <time>2013-12-05T12:54:45Z</time>
      </trkpt>
      <trkpt lat="46.62499" lon="5.52351">
        <ele>442.34</ele>
        <time>2013-12-05T12:55:00Z</time>
      </trkpt>
      <trkpt lat="46.62484" lon="5.52339">
        <ele>443.31</ele>
        <time>2013-12-05T12:55:16Z</time>
      </trkpt>
      <trkpt lat="46.62469" lon="5.52324">
        <ele>444.27</ele>
        <time>2013-12-05T12:55:31Z</time>
      </trkpt>
      <trkpt lat="46.62453" lon="5.523">
        <ele>445.23</ele>
        <time>2013-12-05T12:55:50Z</time>
      </trkpt>
      <trkpt lat="46.6244" lon="5.52275">
        <ele>446.67</ele>
        <time>2013-12-05T12:56:10Z</time>
      </trkpt>
      <trkpt lat="46.62429" lon="5.52255">
        <ele>447.63</ele>
        <time>2013-12-05T12:56:26Z</time>
      </trkpt>
      <trkpt lat="46.62418" lon="5.52236">
        <ele>448.59</ele>
        <time>2013-12-05T12:56:41Z</time>
      </trkpt>
      <trkpt lat="46.62408" lon="5.52221">
        <ele>449.55</ele>
        <time>2013-12-05T12:56:54Z</time>
      </trkpt>
      <trkpt lat="46.62401" lon="5.5221">
        <ele>450.03</ele>
        <time>2013-12-05T12:57:04Z</time>
      </trkpt>
      <trkpt lat="46.62399" lon="5.52208">
        <ele>450.03</ele>
        <time>2013-12-05T12:57:06Z</time>
      </trkpt>
      <trkpt lat="46.62389" lon="5.52192">
        <ele>451</ele>
        <time>2013-12-05T12:57:20Z</time>
      </trkpt>
      <trkpt lat="46.6238" lon="5.52175">
        <ele>451.96</ele>
        <time>2013-12-05T12:57:34Z</time>
      </trkpt>
      <trkpt lat="46.6237" lon="5.52158">
        <ele>452.92</ele>
        <time>2013-12-05T12:57:47Z</time>
      </trkpt>
      <trkpt lat="46.6236" lon="5.52142">
        <ele>452.92</ele>
        <time>2013-12-05T12:57:59Z</time>
      </trkpt>
      <trkpt lat="46.6235" lon="5.52124">
        <ele>453.88</ele>
        <time>2013-12-05T12:58:14Z</time>
      </trkpt>
      <trkpt lat="46.62342" lon="5.52109">
        <ele>454.84</ele>
        <time>2013-12-05T12:58:27Z</time>
      </trkpt>
      <trkpt lat="46.6233" lon="5.52088">
        <ele>455.32</ele>
        <time>2013-12-05T12:58:43Z</time>
      </trkpt>
      <trkpt lat="46.62326" lon="5.52068">
        <ele>456.28</ele>
        <time>2013-12-05T12:58:56Z</time>
      </trkpt>
      <trkpt lat="46.62327" lon="5.52045">
        <ele>456.76</ele>
        <time>2013-12-05T12:59:09Z</time>
      </trkpt>
      <trkpt lat="46.62327" lon="5.52026">
        <ele>457.24</ele>
        <time>2013-12-05T12:59:26Z</time>
      </trkpt>
      <trkpt lat="46.62329" lon="5.52021">
        <ele>457.24</ele>
        <time>2013-12-05T12:59:42Z</time>
      </trkpt>
      <trkpt lat="46.62327" lon="5.52019">
        <ele>457.72</ele>
        <time>2013-12-05T13:00:02Z</time>
      </trkpt>
      <trkpt lat="46.62323" lon="5.52021">
        <ele>459.65</ele>
        <time>2013-12-05T13:00:18Z</time>
      </trkpt>
      <trkpt lat="46.62316" lon="5.52008">
        <ele>461.57</ele>
        <time>2013-12-05T13:00:33Z</time>
      </trkpt>
      <trkpt lat="46.62308" lon="5.52004">
        <ele>462.05</ele>
        <time>2013-12-05T13:00:42Z</time>
      </trkpt>
      <trkpt lat="46.62289" lon="5.52003">
        <ele>463.01</ele>
        <time>2013-12-05T13:00:58Z</time>
      </trkpt>
      <trkpt lat="46.62268" lon="5.51994">
        <ele>463.49</ele>
        <time>2013-12-05T13:01:14Z</time>
      </trkpt>
      <trkpt lat="46.62246" lon="5.51984">
        <ele>463.49</ele>
        <time>2013-12-05T13:01:31Z</time>
      </trkpt>
      <trkpt lat="46.62236" lon="5.51979">
        <ele>463.97</ele>
        <time>2013-12-05T13:01:40Z</time>
      </trkpt>
      <trkpt lat="46.62225" lon="5.51974">
        <ele>464.93</ele>
        <time>2013-12-05T13:01:49Z</time>
      </trkpt>
      <trkpt lat="46.62219" lon="5.51972">
        <ele>465.42</ele>
        <time>2013-12-05T13:01:55Z</time>
      </trkpt>
      <trkpt lat="46.62209" lon="5.5197">
        <ele>465.9</ele>
        <time>2013-12-05T13:02:03Z</time>
      </trkpt>
      <trkpt lat="46.62194" lon="5.51963">
        <ele>467.34</ele>
        <time>2013-12-05T13:02:15Z</time>
      </trkpt>
      <trkpt lat="46.6218" lon="5.51955">
        <ele>469.26</ele>
        <time>2013-12-05T13:02:28Z</time>
      </trkpt>
      <trkpt lat="46.62176" lon="5.51951">
        <ele>469.74</ele>
        <time>2013-12-05T13:02:32Z</time>
      </trkpt>
      <trkpt lat="46.62172" lon="5.5195">
        <ele>470.22</ele>
        <time>2013-12-05T13:02:35Z</time>
      </trkpt>
      <trkpt lat="46.62148" lon="5.51946">
        <ele>471.66</ele>
        <time>2013-12-05T13:02:52Z</time>
      </trkpt>
      <trkpt lat="46.62133" lon="5.51937">
        <ele>472.63</ele>
        <time>2013-12-05T13:03:04Z</time>
      </trkpt>
      <trkpt lat="46.62115" lon="5.51933">
        <ele>472.63</ele>
        <time>2013-12-05T13:03:18Z</time>
      </trkpt>
      <trkpt lat="46.62095" lon="5.5193">
        <ele>473.11</ele>
        <time>2013-12-05T13:03:36Z</time>
      </trkpt>
      <trkpt lat="46.62083" lon="5.51926">
        <ele>473.11</ele>
        <time>2013-12-05T13:03:48Z</time>
      </trkpt>
      <trkpt lat="46.62078" lon="5.51924">
        <ele>473.11</ele>
        <time>2013-12-05T13:03:52Z</time>
      </trkpt>
      <trkpt lat="46.62058" lon="5.5191">
        <ele>472.14</ele>
        <time>2013-12-05T13:04:12Z</time>
      </trkpt>
      <trkpt lat="46.62042" lon="5.51906">
        <ele>472.14</ele>
        <time>2013-12-05T13:04:29Z</time>
      </trkpt>
      <trkpt lat="46.62029" lon="5.51902">
        <ele>472.14</ele>
        <time>2013-12-05T13:04:41Z</time>
      </trkpt>
      <trkpt lat="46.62026" lon="5.51902">
        <ele>472.14</ele>
        <time>2013-12-05T13:04:45Z</time>
      </trkpt>
      <trkpt lat="46.62007" lon="5.51901">
        <ele>472.14</ele>
        <time>2013-12-05T13:05:02Z</time>
      </trkpt>
      <trkpt lat="46.61992" lon="5.51896">
        <ele>472.63</ele>
        <time>2013-12-05T13:05:17Z</time>
      </trkpt>
      <trkpt lat="46.61977" lon="5.51891">
        <ele>471.18</ele>
        <time>2013-12-05T13:05:32Z</time>
      </trkpt>
      <trkpt lat="46.61965" lon="5.51889">
        <ele>471.18</ele>
        <time>2013-12-05T13:05:47Z</time>
      </trkpt>
      <trkpt lat="46.61948" lon="5.51886">
        <ele>470.7</ele>
        <time>2013-12-05T13:06:05Z</time>
      </trkpt>
      <trkpt lat="46.61932" lon="5.51876">
        <ele>470.7</ele>
        <time>2013-12-05T13:06:21Z</time>
      </trkpt>
      <trkpt lat="46.61913" lon="5.51873">
        <ele>471.18</ele>
        <time>2013-12-05T13:06:38Z</time>
      </trkpt>
      <trkpt lat="46.61894" lon="5.5187">
        <ele>471.18</ele>
        <time>2013-12-05T13:06:54Z</time>
      </trkpt>
      <trkpt lat="46.61876" lon="5.51867">
        <ele>472.14</ele>
        <time>2013-12-05T13:07:10Z</time>
      </trkpt>
      <trkpt lat="46.61855" lon="5.51867">
        <ele>472.14</ele>
        <time>2013-12-05T13:07:29Z</time>
      </trkpt>
      <trkpt lat="46.61832" lon="5.5187">
        <ele>472.14</ele>
        <time>2013-12-05T13:07:46Z</time>
      </trkpt>
      <trkpt lat="46.61809" lon="5.51874">
        <ele>473.11</ele>
        <time>2013-12-05T13:08:04Z</time>
      </trkpt>
      <trkpt lat="46.61789" lon="5.51875">
        <ele>475.03</ele>
        <time>2013-12-05T13:08:19Z</time>
      </trkpt>
      <trkpt lat="46.61768" lon="5.51877">
        <ele>475.99</ele>
        <time>2013-12-05T13:08:36Z</time>
      </trkpt>
      <trkpt lat="46.61753" lon="5.51876">
        <ele>476.47</ele>
        <time>2013-12-05T13:08:50Z</time>
      </trkpt>
      <trkpt lat="46.61736" lon="5.51877">
        <ele>476.47</ele>
        <time>2013-12-05T13:09:07Z</time>
      </trkpt>
      <trkpt lat="46.61723" lon="5.51881">
        <ele>477.43</ele>
        <time>2013-12-05T13:09:22Z</time>
      </trkpt>
      <trkpt lat="46.61709" lon="5.51882">
        <ele>477.91</ele>
        <time>2013-12-05T13:09:37Z</time>
      </trkpt>
      <trkpt lat="46.61694" lon="5.5188">
        <ele>477.91</ele>
        <time>2013-12-05T13:09:52Z</time>
      </trkpt>
      <trkpt lat="46.61681" lon="5.51878">
        <ele>477.91</ele>
        <time>2013-12-05T13:10:04Z</time>
      </trkpt>
      <trkpt lat="46.61676" lon="5.51876">
        <ele>477.91</ele>
        <time>2013-12-05T13:10:09Z</time>
      </trkpt>
      <trkpt lat="46.61664" lon="5.51877">
        <ele>477.91</ele>
        <time>2013-12-05T13:10:23Z</time>
      </trkpt>
      <trkpt lat="46.61652" lon="5.51886">
        <ele>479.84</ele>
        <time>2013-12-05T13:10:38Z</time>
      </trkpt>
      <trkpt lat="46.6165" lon="5.51887">
        <ele>479.84</ele>
        <time>2013-12-05T13:10:40Z</time>
      </trkpt>
      <trkpt lat="46.61636" lon="5.51898">
        <ele>481.28</ele>
        <time>2013-12-05T13:10:54Z</time>
      </trkpt>
      <trkpt lat="46.61629" lon="5.51902">
        <ele>481.76</ele>
        <time>2013-12-05T13:11:00Z</time>
      </trkpt>
      <trkpt lat="46.61624" lon="5.51904">
        <ele>481.76</ele>
        <time>2013-12-05T13:11:04Z</time>
      </trkpt>
      <trkpt lat="46.61608" lon="5.5191">
        <ele>481.76</ele>
        <time>2013-12-05T13:11:18Z</time>
      </trkpt>
      <trkpt lat="46.61593" lon="5.51916">
        <ele>481.76</ele>
        <time>2013-12-05T13:11:33Z</time>
      </trkpt>
      <trkpt lat="46.61576" lon="5.51921">
        <ele>481.76</ele>
        <time>2013-12-05T13:11:48Z</time>
      </trkpt>
      <trkpt lat="46.61555" lon="5.51925">
        <ele>481.76</ele>
        <time>2013-12-05T13:12:03Z</time>
      </trkpt>
      <trkpt lat="46.6155" lon="5.51926">
        <ele>482.72</ele>
        <time>2013-12-05T13:12:16Z</time>
      </trkpt>
      <trkpt lat="46.61541" lon="5.5193">
        <ele>483.2</ele>
        <time>2013-12-05T13:12:28Z</time>
      </trkpt>
      <trkpt lat="46.61526" lon="5.51933">
        <ele>483.68</ele>
        <time>2013-12-05T13:12:43Z</time>
      </trkpt>
      <trkpt lat="46.6151" lon="5.51936">
        <ele>483.68</ele>
        <time>2013-12-05T13:12:58Z</time>
      </trkpt>
      <trkpt lat="46.61492" lon="5.51936">
        <ele>484.64</ele>
        <time>2013-12-05T13:13:15Z</time>
      </trkpt>
      <trkpt lat="46.61478" lon="5.51935">
        <ele>485.6</ele>
        <time>2013-12-05T13:13:29Z</time>
      </trkpt>
      <trkpt lat="46.61466" lon="5.5193">
        <ele>487.05</ele>
        <time>2013-12-05T13:13:42Z</time>
      </trkpt>
      <trkpt lat="46.61451" lon="5.51925">
        <ele>488.49</ele>
        <time>2013-12-05T13:13:56Z</time>
      </trkpt>
      <trkpt lat="46.61441" lon="5.51922">
        <ele>489.93</ele>
        <time>2013-12-05T13:14:06Z</time>
      </trkpt>
      <trkpt lat="46.61429" lon="5.51915">
        <ele>491.37</ele>
        <time>2013-12-05T13:14:20Z</time>
      </trkpt>
      <trkpt lat="46.61416" lon="5.51905">
        <ele>492.81</ele>
        <time>2013-12-05T13:14:35Z</time>
      </trkpt>
      <trkpt lat="46.614" lon="5.51895">
        <ele>494.26</ele>
        <time>2013-12-05T13:14:52Z</time>
      </trkpt>
      <trkpt lat="46.61386" lon="5.51891">
        <ele>495.22</ele>
        <time>2013-12-05T13:15:05Z</time>
      </trkpt>
      <trkpt lat="46.61379" lon="5.5189">
        <ele>495.22</ele>
        <time>2013-12-05T13:15:11Z</time>
      </trkpt>
      <trkpt lat="46.61363" lon="5.51891">
        <ele>496.66</ele>
        <time>2013-12-05T13:15:27Z</time>
      </trkpt>
      <trkpt lat="46.61348" lon="5.51893">
        <ele>498.1</ele>
        <time>2013-12-05T13:15:41Z</time>
      </trkpt>
      <trkpt lat="46.61343" lon="5.51895">
        <ele>498.58</ele>
        <time>2013-12-05T13:15:46Z</time>
      </trkpt>
      <trkpt lat="46.6133" lon="5.51897">
        <ele>499.06</ele>
        <time>2013-12-05T13:15:57Z</time>
      </trkpt>
      <trkpt lat="46.61324" lon="5.51897">
        <ele>499.54</ele>
        <time>2013-12-05T13:16:03Z</time>
      </trkpt>
      <trkpt lat="46.61305" lon="5.51897">
        <ele>500.98</ele>
        <time>2013-12-05T13:16:20Z</time>
      </trkpt>
      <trkpt lat="46.6129" lon="5.51897">
        <ele>501.46</ele>
        <time>2013-12-05T13:16:34Z</time>
      </trkpt>
      <trkpt lat="46.61275" lon="5.51897">
        <ele>502.91</ele>
        <time>2013-12-05T13:16:47Z</time>
      </trkpt>
      <trkpt lat="46.61261" lon="5.51896">
        <ele>503.39</ele>
        <time>2013-12-05T13:17:00Z</time>
      </trkpt>
      <trkpt lat="46.61258" lon="5.51896">
        <ele>503.87</ele>
        <time>2013-12-05T13:17:03Z</time>
      </trkpt>
      <trkpt lat="46.6124" lon="5.51897">
        <ele>504.35</ele>
        <time>2013-12-05T13:17:20Z</time>
      </trkpt>
      <trkpt lat="46.61223" lon="5.51898">
        <ele>504.83</ele>
        <time>2013-12-05T13:17:35Z</time>
      </trkpt>
      <trkpt lat="46.61217" lon="5.519">
        <ele>504.83</ele>
        <time>2013-12-05T13:17:41Z</time>
      </trkpt>
      <trkpt lat="46.612" lon="5.51903">
        <ele>505.31</ele>
        <time>2013-12-05T13:17:56Z</time>
      </trkpt>
      <trkpt lat="46.61191" lon="5.51903">
        <ele>506.27</ele>
        <time>2013-12-05T13:18:03Z</time>
      </trkpt>
      <trkpt lat="46.61175" lon="5.51901">
        <ele>506.75</ele>
        <time>2013-12-05T13:18:17Z</time>
      </trkpt>
      <trkpt lat="46.61156" lon="5.51898">
        <ele>507.71</ele>
        <time>2013-12-05T13:18:35Z</time>
      </trkpt>
      <trkpt lat="46.61142" lon="5.51897">
        <ele>508.19</ele>
        <time>2013-12-05T13:18:49Z</time>
      </trkpt>
      <trkpt lat="46.61141" lon="5.51897">
        <ele>508.19</ele>
        <time>2013-12-05T13:18:50Z</time>
      </trkpt>
      <trkpt lat="46.6113" lon="5.51897">
        <ele>509.16</ele>
        <time>2013-12-05T13:19:04Z</time>
      </trkpt>
      <trkpt lat="46.61129" lon="5.51895">
        <ele>509.16</ele>
        <time>2013-12-05T13:19:26Z</time>
      </trkpt>
      <trkpt lat="46.61129" lon="5.51894">
        <ele>509.16</ele>
        <time>2013-12-05T13:19:46Z</time>
      </trkpt>
      <trkpt lat="46.61127" lon="5.51894">
        <ele>508.67</ele>
        <time>2013-12-05T13:20:00Z</time>
      </trkpt>
      <trkpt lat="46.61127" lon="5.51891">
        <ele>508.67</ele>
        <time>2013-12-05T13:20:25Z</time>
      </trkpt>
      <trkpt lat="46.61128" lon="5.51892">
        <ele>508.67</ele>
        <time>2013-12-05T13:20:57Z</time>
      </trkpt>
      <trkpt lat="46.61128" lon="5.51892">
        <ele>508.67</ele>
        <time>2013-12-05T13:21:22Z</time>
      </trkpt>
      <trkpt lat="46.61128" lon="5.51891">
        <ele>508.67</ele>
        <time>2013-12-05T13:21:48Z</time>
      </trkpt>
      <trkpt lat="46.61129" lon="5.51891">
        <ele>509.16</ele>
        <time>2013-12-05T13:22:15Z</time>
      </trkpt>
      <trkpt lat="46.61129" lon="5.51892">
        <ele>509.16</ele>
        <time>2013-12-05T13:22:41Z</time>
      </trkpt>
      <trkpt lat="46.61129" lon="5.51891">
        <ele>509.16</ele>
        <time>2013-12-05T13:23:01Z</time>
      </trkpt>
      <trkpt lat="46.61128" lon="5.51894">
        <ele>509.16</ele>
        <time>2013-12-05T13:23:25Z</time>
      </trkpt>
      <trkpt lat="46.61122" lon="5.51892">
        <ele>509.16</ele>
        <time>2013-12-05T13:23:36Z</time>
      </trkpt>
      <trkpt lat="46.61108" lon="5.5189">
        <ele>510.12</ele>
        <time>2013-12-05T13:23:50Z</time>
      </trkpt>
      <trkpt lat="46.61098" lon="5.51889">
        <ele>511.08</ele>
        <time>2013-12-05T13:24:00Z</time>
      </trkpt>
      <trkpt lat="46.61079" lon="5.51888">
        <ele>512.04</ele>
        <time>2013-12-05T13:24:17Z</time>
      </trkpt>
      <trkpt lat="46.61063" lon="5.51887">
        <ele>513.48</ele>
        <time>2013-12-05T13:24:31Z</time>
      </trkpt>
      <trkpt lat="46.61048" lon="5.51884">
        <ele>514.92</ele>
        <time>2013-12-05T13:24:46Z</time>
      </trkpt>
      <trkpt lat="46.6104" lon="5.51881">
        <ele>516.37</ele>
        <time>2013-12-05T13:24:59Z</time>
      </trkpt>
      <trkpt lat="46.6103" lon="5.51872">
        <ele>517.81</ele>
        <time>2013-12-05T13:25:14Z</time>
      </trkpt>
      <trkpt lat="46.61018" lon="5.51871">
        <ele>518.77</ele>
        <time>2013-12-05T13:25:28Z</time>
      </trkpt>
      <trkpt lat="46.61017" lon="5.51871">
        <ele>518.77</ele>
        <time>2013-12-05T13:25:29Z</time>
      </trkpt>
      <trkpt lat="46.61014" lon="5.5187">
        <ele>519.25</ele>
        <time>2013-12-05T13:25:32Z</time>
      </trkpt>
      <trkpt lat="46.61" lon="5.5187">
        <ele>520.21</ele>
        <time>2013-12-05T13:25:46Z</time>
      </trkpt>
      <trkpt lat="46.60985" lon="5.51869">
        <ele>520.69</ele>
        <time>2013-12-05T13:26:00Z</time>
      </trkpt>
      <trkpt lat="46.60967" lon="5.51873">
        <ele>521.65</ele>
        <time>2013-12-05T13:26:18Z</time>
      </trkpt>
      <trkpt lat="46.60951" lon="5.51866">
        <ele>522.61</ele>
        <time>2013-12-05T13:26:34Z</time>
      </trkpt>
      <trkpt lat="46.60944" lon="5.51863">
        <ele>523.58</ele>
        <time>2013-12-05T13:26:43Z</time>
      </trkpt>
      <trkpt lat="46.60931" lon="5.51864">
        <ele>525.98</ele>
        <time>2013-12-05T13:26:58Z</time>
      </trkpt>
      <trkpt lat="46.60917" lon="5.51862">
        <ele>527.9</ele>
        <time>2013-12-05T13:27:15Z</time>
      </trkpt>
      <trkpt lat="46.60912" lon="5.51861">
        <ele>528.86</ele>
        <time>2013-12-05T13:27:20Z</time>
      </trkpt>
      <trkpt lat="46.6091" lon="5.5186">
        <ele>528.86</ele>
        <time>2013-12-05T13:27:22Z</time>
      </trkpt>
      <trkpt lat="46.60897" lon="5.51854">
        <ele>530.79</ele>
        <time>2013-12-05T13:27:37Z</time>
      </trkpt>
      <trkpt lat="46.60883" lon="5.51845">
        <ele>532.23</ele>
        <time>2013-12-05T13:27:53Z</time>
      </trkpt>
      <trkpt lat="46.60869" lon="5.51835">
        <ele>532.71</ele>
        <time>2013-12-05T13:28:08Z</time>
      </trkpt>
      <trkpt lat="46.60858" lon="5.51825">
        <ele>534.15</ele>
        <time>2013-12-05T13:28:21Z</time>
      </trkpt>
      <trkpt lat="46.60843" lon="5.51815">
        <ele>534.63</ele>
        <time>2013-12-05T13:28:36Z</time>
      </trkpt>
      <trkpt lat="46.60834" lon="5.51807">
        <ele>535.59</ele>
        <time>2013-12-05T13:28:45Z</time>
      </trkpt>
      <trkpt lat="46.60822" lon="5.51793">
        <ele>537.03</ele>
        <time>2013-12-05T13:29:01Z</time>
      </trkpt>
      <trkpt lat="46.60813" lon="5.51785">
        <ele>539.44</ele>
        <time>2013-12-05T13:29:16Z</time>
      </trkpt>
      <trkpt lat="46.60803" lon="5.51784">
        <ele>542.32</ele>
        <time>2013-12-05T13:29:30Z</time>
      </trkpt>
      <trkpt lat="46.60795" lon="5.51781">
        <ele>544.72</ele>
        <time>2013-12-05T13:29:43Z</time>
      </trkpt>
      <trkpt lat="46.60786" lon="5.5178">
        <ele>546.65</ele>
        <time>2013-12-05T13:29:54Z</time>
      </trkpt>
      <trkpt lat="46.60774" lon="5.51782">
        <ele>550.01</ele>
        <time>2013-12-05T13:30:06Z</time>
      </trkpt>
      <trkpt lat="46.60769" lon="5.51785">
        <ele>551.93</ele>
        <time>2013-12-05T13:30:14Z</time>
      </trkpt>
      <trkpt lat="46.60767" lon="5.51786">
        <ele>552.9</ele>
        <time>2013-12-05T13:30:16Z</time>
      </trkpt>
      <trkpt lat="46.60754" lon="5.51777">
        <ele>554.82</ele>
        <time>2013-12-05T13:30:30Z</time>
      </trkpt>
      <trkpt lat="46.60744" lon="5.51771">
        <ele>555.78</ele>
        <time>2013-12-05T13:30:42Z</time>
      </trkpt>
      <trkpt lat="46.6074" lon="5.51767">
        <ele>556.26</ele>
        <time>2013-12-05T13:30:47Z</time>
      </trkpt>
      <trkpt lat="46.60727" lon="5.51759">
        <ele>557.7</ele>
        <time>2013-12-05T13:30:58Z</time>
      </trkpt>
      <trkpt lat="46.60706" lon="5.51748">
        <ele>560.11</ele>
        <time>2013-12-05T13:31:16Z</time>
      </trkpt>
      <trkpt lat="46.60701" lon="5.51742">
        <ele>561.07</ele>
        <time>2013-12-05T13:31:29Z</time>
      </trkpt>
      <trkpt lat="46.60701" lon="5.51742">
        <ele>561.07</ele>
        <time>2013-12-05T13:31:32Z</time>
      </trkpt>
      <trkpt lat="46.60699" lon="5.51743">
        <ele>561.07</ele>
        <time>2013-12-05T13:31:34Z</time>
      </trkpt>
      <trkpt lat="46.60696" lon="5.5174">
        <ele>561.07</ele>
        <time>2013-12-05T13:31:47Z</time>
      </trkpt>
      <trkpt lat="46.60687" lon="5.51737">
        <ele>561.07</ele>
        <time>2013-12-05T13:32:00Z</time>
      </trkpt>
      <trkpt lat="46.60688" lon="5.51737">
        <ele>561.07</ele>
        <time>2013-12-05T13:32:14Z</time>
      </trkpt>
      <trkpt lat="46.60689" lon="5.51739">
        <ele>561.07</ele>
        <time>2013-12-05T13:32:32Z</time>
      </trkpt>
      <trkpt lat="46.60682" lon="5.51736">
        <ele>561.07</ele>
        <time>2013-12-05T13:32:47Z</time>
      </trkpt>
      <trkpt lat="46.60684" lon="5.51734">
        <ele>561.07</ele>
        <time>2013-12-05T13:33:04Z</time>
      </trkpt>
      <trkpt lat="46.60684" lon="5.51735">
        <ele>560.59</ele>
        <time>2013-12-05T13:33:27Z</time>
      </trkpt>
      <trkpt lat="46.60684" lon="5.51735">
        <ele>560.59</ele>
        <time>2013-12-05T13:33:48Z</time>
      </trkpt>
      <trkpt lat="46.60684" lon="5.51736">
        <ele>560.59</ele>
        <time>2013-12-05T13:34:05Z</time>
      </trkpt>
      <trkpt lat="46.60683" lon="5.51735">
        <ele>560.59</ele>
        <time>2013-12-05T13:34:29Z</time>
      </trkpt>
      <trkpt lat="46.60686" lon="5.51735">
        <ele>560.59</ele>
        <time>2013-12-05T13:34:35Z</time>
      </trkpt>
      <trkpt lat="46.60687" lon="5.51737">
        <ele>560.59</ele>
        <time>2013-12-05T13:34:37Z</time>
      </trkpt>
      <trkpt lat="46.60692" lon="5.51743">
        <ele>560.59</ele>
        <time>2013-12-05T13:34:51Z</time>
      </trkpt>
      <trkpt lat="46.60691" lon="5.51744">
        <ele>560.59</ele>
        <time>2013-12-05T13:35:21Z</time>
      </trkpt>
      <trkpt lat="46.60692" lon="5.51746">
        <ele>560.11</ele>
        <time>2013-12-05T13:35:50Z</time>
      </trkpt>
      <trkpt lat="46.60691" lon="5.51746">
        <ele>560.11</ele>
        <time>2013-12-05T13:36:03Z</time>
      </trkpt>
      <trkpt lat="46.6069" lon="5.51741">
        <ele>560.11</ele>
        <time>2013-12-05T13:36:08Z</time>
      </trkpt>
      <trkpt lat="46.60685" lon="5.51741">
        <ele>560.11</ele>
        <time>2013-12-05T13:36:14Z</time>
      </trkpt>
      <trkpt lat="46.60682" lon="5.51741">
        <ele>560.11</ele>
        <time>2013-12-05T13:36:17Z</time>
      </trkpt>
      <trkpt lat="46.60676" lon="5.51737">
        <ele>559.14</ele>
        <time>2013-12-05T13:36:24Z</time>
      </trkpt>
      <trkpt lat="46.6066" lon="5.51729">
        <ele>558.18</ele>
        <time>2013-12-05T13:36:41Z</time>
      </trkpt>
      <trkpt lat="46.6065" lon="5.51719">
        <ele>557.7</ele>
        <time>2013-12-05T13:36:53Z</time>
      </trkpt>
      <trkpt lat="46.60643" lon="5.5171">
        <ele>556.74</ele>
        <time>2013-12-05T13:37:01Z</time>
      </trkpt>
      <trkpt lat="46.60627" lon="5.51692">
        <ele>555.3</ele>
        <time>2013-12-05T13:37:19Z</time>
      </trkpt>
      <trkpt lat="46.60623" lon="5.5169">
        <ele>555.3</ele>
        <time>2013-12-05T13:37:23Z</time>
      </trkpt>
      <trkpt lat="46.60619" lon="5.5169">
        <ele>554.82</ele>
        <time>2013-12-05T13:37:27Z</time>
      </trkpt>
      <trkpt lat="46.60594" lon="5.51681">
        <ele>551.93</ele>
        <time>2013-12-05T13:37:47Z</time>
      </trkpt>
      <trkpt lat="46.60572" lon="5.51673">
        <ele>549.05</ele>
        <time>2013-12-05T13:38:06Z</time>
      </trkpt>
      <trkpt lat="46.60551" lon="5.51663">
        <ele>545.69</ele>
        <time>2013-12-05T13:38:24Z</time>
      </trkpt>
      <trkpt lat="46.60531" lon="5.51652">
        <ele>542.8</ele>
        <time>2013-12-05T13:38:42Z</time>
      </trkpt>
      <trkpt lat="46.60509" lon="5.51642">
        <ele>540.4</ele>
        <time>2013-12-05T13:39:02Z</time>
      </trkpt>
      <trkpt lat="46.60494" lon="5.51629">
        <ele>537.51</ele>
        <time>2013-12-05T13:39:20Z</time>
      </trkpt>
      <trkpt lat="46.60488" lon="5.51626">
        <ele>537.03</ele>
        <time>2013-12-05T13:39:34Z</time>
      </trkpt>
      <trkpt lat="46.60484" lon="5.51627">
        <ele>536.07</ele>
        <time>2013-12-05T13:39:39Z</time>
      </trkpt>
      <trkpt lat="46.60465" lon="5.51617">
        <ele>532.71</ele>
        <time>2013-12-05T13:39:58Z</time>
      </trkpt>
      <trkpt lat="46.60451" lon="5.5161">
        <ele>529.34</ele>
        <time>2013-12-05T13:40:15Z</time>
      </trkpt>
      <trkpt lat="46.60436" lon="5.51602">
        <ele>526.46</ele>
        <time>2013-12-05T13:40:33Z</time>
      </trkpt>
      <trkpt lat="46.60434" lon="5.516">
        <ele>525.98</ele>
        <time>2013-12-05T13:40:36Z</time>
      </trkpt>
      <trkpt lat="46.60429" lon="5.5159">
        <ele>524.06</ele>
        <time>2013-12-05T13:40:51Z</time>
      </trkpt>
      <trkpt lat="46.60428" lon="5.51589">
        <ele>524.06</ele>
        <time>2013-12-05T13:40:56Z</time>
      </trkpt>
      <trkpt lat="46.60422" lon="5.51594">
        <ele>523.09</ele>
        <time>2013-12-05T13:41:07Z</time>
      </trkpt>
      <trkpt lat="46.6042" lon="5.51587">
        <ele>522.13</ele>
        <time>2013-12-05T13:41:12Z</time>
      </trkpt>
      <trkpt lat="46.60415" lon="5.51581">
        <ele>521.17</ele>
        <time>2013-12-05T13:41:27Z</time>
      </trkpt>
      <trkpt lat="46.60416" lon="5.51581">
        <ele>521.17</ele>
        <time>2013-12-05T13:41:33Z</time>
      </trkpt>
      <trkpt lat="46.60398" lon="5.51583">
        <ele>517.33</ele>
        <time>2013-12-05T13:41:50Z</time>
      </trkpt>
      <trkpt lat="46.60393" lon="5.5158">
        <ele>515.88</ele>
        <time>2013-12-05T13:41:54Z</time>
      </trkpt>
      <trkpt lat="46.60392" lon="5.51577">
        <ele>515.88</ele>
        <time>2013-12-05T13:41:59Z</time>
      </trkpt>
      <trkpt lat="46.60388" lon="5.51575">
        <ele>514.92</ele>
        <time>2013-12-05T13:42:03Z</time>
      </trkpt>
      <trkpt lat="46.60373" lon="5.51571">
        <ele>511.08</ele>
        <time>2013-12-05T13:42:15Z</time>
      </trkpt>
      <trkpt lat="46.60358" lon="5.51564">
        <ele>507.71</ele>
        <time>2013-12-05T13:42:28Z</time>
      </trkpt>
      <trkpt lat="46.60343" lon="5.51555">
        <ele>504.35</ele>
        <time>2013-12-05T13:42:42Z</time>
      </trkpt>
      <trkpt lat="46.60327" lon="5.51547">
        <ele>500.98</ele>
        <time>2013-12-05T13:42:57Z</time>
      </trkpt>
      <trkpt lat="46.6032" lon="5.51543">
        <ele>499.54</ele>
        <time>2013-12-05T13:43:09Z</time>
      </trkpt>
      <trkpt lat="46.60314" lon="5.51542">
        <ele>498.1</ele>
        <time>2013-12-05T13:43:24Z</time>
      </trkpt>
      <trkpt lat="46.60308" lon="5.51543">
        <ele>497.62</ele>
        <time>2013-12-05T13:43:39Z</time>
      </trkpt>
      <trkpt lat="46.60296" lon="5.51541">
        <ele>495.7</ele>
        <time>2013-12-05T13:43:51Z</time>
      </trkpt>
      <trkpt lat="46.60287" lon="5.51543">
        <ele>495.22</ele>
        <time>2013-12-05T13:44:00Z</time>
      </trkpt>
      <trkpt lat="46.60284" lon="5.51545">
        <ele>494.26</ele>
        <time>2013-12-05T13:44:03Z</time>
      </trkpt>
      <trkpt lat="46.60276" lon="5.51569">
        <ele>494.26</ele>
        <time>2013-12-05T13:44:17Z</time>
      </trkpt>
      <trkpt lat="46.60274" lon="5.51571">
        <ele>494.26</ele>
        <time>2013-12-05T13:44:19Z</time>
      </trkpt>
      <trkpt lat="46.60272" lon="5.51579">
        <ele>494.26</ele>
        <time>2013-12-05T13:44:24Z</time>
      </trkpt>
      <trkpt lat="46.60263" lon="5.51607">
        <ele>494.26</ele>
        <time>2013-12-05T13:44:40Z</time>
      </trkpt>
      <trkpt lat="46.60254" lon="5.51633">
        <ele>493.77</ele>
        <time>2013-12-05T13:44:56Z</time>
      </trkpt>
      <trkpt lat="46.60244" lon="5.51657">
        <ele>493.77</ele>
        <time>2013-12-05T13:45:11Z</time>
      </trkpt>
      <trkpt lat="46.60236" lon="5.51686">
        <ele>493.77</ele>
        <time>2013-12-05T13:45:28Z</time>
      </trkpt>
      <trkpt lat="46.60235" lon="5.51689">
        <ele>493.77</ele>
        <time>2013-12-05T13:45:30Z</time>
      </trkpt>
      <trkpt lat="46.60236" lon="5.51716">
        <ele>493.77</ele>
        <time>2013-12-05T13:45:45Z</time>
      </trkpt>
      <trkpt lat="46.60241" lon="5.51747">
        <ele>493.77</ele>
        <time>2013-12-05T13:46:03Z</time>
      </trkpt>
      <trkpt lat="46.60246" lon="5.51774">
        <ele>493.77</ele>
        <time>2013-12-05T13:46:19Z</time>
      </trkpt>
      <trkpt lat="46.60248" lon="5.51806">
        <ele>495.22</ele>
        <time>2013-12-05T13:46:36Z</time>
      </trkpt>
      <trkpt lat="46.6025" lon="5.51831">
        <ele>495.22</ele>
        <time>2013-12-05T13:46:50Z</time>
      </trkpt>
      <trkpt lat="46.60253" lon="5.51853">
        <ele>497.14</ele>
        <time>2013-12-05T13:47:04Z</time>
      </trkpt>
      <trkpt lat="46.60253" lon="5.5186">
        <ele>497.14</ele>
        <time>2013-12-05T13:47:08Z</time>
      </trkpt>
      <trkpt lat="46.60247" lon="5.51878">
        <ele>498.58</ele>
        <time>2013-12-05T13:47:23Z</time>
      </trkpt>
      <trkpt lat="46.6024" lon="5.51885">
        <ele>498.58</ele>
        <time>2013-12-05T13:47:42Z</time>
      </trkpt>
      <trkpt lat="46.60233" lon="5.51889">
        <ele>499.06</ele>
        <time>2013-12-05T13:47:56Z</time>
      </trkpt>
      <trkpt lat="46.60233" lon="5.51888">
        <ele>499.06</ele>
        <time>2013-12-05T13:48:16Z</time>
      </trkpt>
      <trkpt lat="46.60233" lon="5.51888">
        <ele>499.06</ele>
        <time>2013-12-05T13:48:37Z</time>
      </trkpt>
      <trkpt lat="46.60232" lon="5.51887">
        <ele>499.06</ele>
        <time>2013-12-05T13:48:52Z</time>
      </trkpt>
      <trkpt lat="46.60231" lon="5.51887">
        <ele>499.06</ele>
        <time>2013-12-05T13:48:55Z</time>
      </trkpt>
      <trkpt lat="46.6023" lon="5.51882">
        <ele>499.06</ele>
        <time>2013-12-05T13:49:08Z</time>
      </trkpt>
      <trkpt lat="46.60231" lon="5.51887">
        <ele>499.06</ele>
        <time>2013-12-05T13:49:18Z</time>
      </trkpt>
      <trkpt lat="46.60228" lon="5.51889">
        <ele>499.06</ele>
        <time>2013-12-05T13:49:33Z</time>
      </trkpt>
      <trkpt lat="46.60227" lon="5.51889">
        <ele>499.06</ele>
        <time>2013-12-05T13:49:45Z</time>
      </trkpt>
      <trkpt lat="46.60226" lon="5.51885">
        <ele>499.54</ele>
        <time>2013-12-05T13:50:06Z</time>
      </trkpt>
      <trkpt lat="46.60226" lon="5.51883">
        <ele>499.54</ele>
        <time>2013-12-05T13:50:23Z</time>
      </trkpt>
      <trkpt lat="46.6023" lon="5.51881">
        <ele>499.54</ele>
        <time>2013-12-05T13:50:39Z</time>
      </trkpt>
      <trkpt lat="46.60232" lon="5.5188">
        <ele>499.54</ele>
        <time>2013-12-05T13:50:55Z</time>
      </trkpt>
      <trkpt lat="46.60231" lon="5.51885">
        <ele>499.54</ele>
        <time>2013-12-05T13:51:10Z</time>
      </trkpt>
      <trkpt lat="46.60228" lon="5.51883">
        <ele>499.54</ele>
        <time>2013-12-05T13:51:22Z</time>
      </trkpt>
      <trkpt lat="46.60232" lon="5.5188">
        <ele>499.54</ele>
        <time>2013-12-05T13:51:37Z</time>
      </trkpt>
      <trkpt lat="46.60232" lon="5.51878">
        <ele>499.54</ele>
        <time>2013-12-05T13:51:54Z</time>
      </trkpt>
      <trkpt lat="46.60232" lon="5.51881">
        <ele>499.54</ele>
        <time>2013-12-05T13:52:09Z</time>
      </trkpt>
      <trkpt lat="46.60231" lon="5.51885">
        <ele>499.54</ele>
        <time>2013-12-05T13:52:25Z</time>
      </trkpt>
      <trkpt lat="46.60227" lon="5.51885">
        <ele>499.54</ele>
        <time>2013-12-05T13:52:43Z</time>
      </trkpt>
      <trkpt lat="46.60227" lon="5.51881">
        <ele>500.02</ele>
        <time>2013-12-05T13:53:10Z</time>
      </trkpt>
      <trkpt lat="46.60227" lon="5.51881">
        <ele>500.02</ele>
        <time>2013-12-05T13:53:30Z</time>
      </trkpt>
      <trkpt lat="46.60227" lon="5.51885">
        <ele>500.02</ele>
        <time>2013-12-05T13:53:55Z</time>
      </trkpt>
      <trkpt lat="46.60223" lon="5.51889">
        <ele>500.02</ele>
        <time>2013-12-05T13:54:16Z</time>
      </trkpt>
      <trkpt lat="46.60217" lon="5.51894">
        <ele>500.02</ele>
        <time>2013-12-05T13:54:25Z</time>
      </trkpt>
      <trkpt lat="46.60207" lon="5.51911">
        <ele>500.02</ele>
        <time>2013-12-05T13:54:39Z</time>
      </trkpt>
      <trkpt lat="46.6019" lon="5.51921">
        <ele>499.06</ele>
        <time>2013-12-05T13:54:54Z</time>
      </trkpt>
      <trkpt lat="46.60174" lon="5.51927">
        <ele>498.58</ele>
        <time>2013-12-05T13:55:08Z</time>
      </trkpt>
      <trkpt lat="46.60154" lon="5.51934">
        <ele>498.1</ele>
        <time>2013-12-05T13:55:25Z</time>
      </trkpt>
      <trkpt lat="46.60135" lon="5.51941">
        <ele>497.62</ele>
        <time>2013-12-05T13:55:42Z</time>
      </trkpt>
      <trkpt lat="46.60117" lon="5.51943">
        <ele>497.62</ele>
        <time>2013-12-05T13:55:58Z</time>
      </trkpt>
      <trkpt lat="46.60102" lon="5.51941">
        <ele>497.14</ele>
        <time>2013-12-05T13:56:12Z</time>
      </trkpt>
      <trkpt lat="46.60099" lon="5.51941">
        <ele>497.14</ele>
        <time>2013-12-05T13:56:14Z</time>
      </trkpt>
      <trkpt lat="46.60079" lon="5.51941">
        <ele>497.14</ele>
        <time>2013-12-05T13:56:31Z</time>
      </trkpt>
      <trkpt lat="46.6006" lon="5.51942">
        <ele>496.66</ele>
        <time>2013-12-05T13:56:47Z</time>
      </trkpt>
      <trkpt lat="46.60045" lon="5.51938">
        <ele>496.18</ele>
        <time>2013-12-05T13:57:01Z</time>
      </trkpt>
      <trkpt lat="46.60025" lon="5.51936">
        <ele>495.7</ele>
        <time>2013-12-05T13:57:18Z</time>
      </trkpt>
      <trkpt lat="46.60004" lon="5.51936">
        <ele>495.22</ele>
        <time>2013-12-05T13:57:35Z</time>
      </trkpt>
      <trkpt lat="46.5998" lon="5.51938">
        <ele>494.74</ele>
        <time>2013-12-05T13:57:55Z</time>
      </trkpt>
      <trkpt lat="46.59959" lon="5.51945">
        <ele>493.29</ele>
        <time>2013-12-05T13:58:12Z</time>
      </trkpt>
      <trkpt lat="46.59938" lon="5.51947">
        <ele>492.81</ele>
        <time>2013-12-05T13:58:29Z</time>
      </trkpt>
      <trkpt lat="46.5992" lon="5.51953">
        <ele>491.85</ele>
        <time>2013-12-05T13:58:46Z</time>
      </trkpt>
      <trkpt lat="46.5992" lon="5.5195">
        <ele>491.85</ele>
        <time>2013-12-05T13:59:04Z</time>
      </trkpt>
      <trkpt lat="46.59914" lon="5.51974">
        <ele>491.85</ele>
        <time>2013-12-05T13:59:19Z</time>
      </trkpt>
      <trkpt lat="46.59899" lon="5.51994">
        <ele>491.37</ele>
        <time>2013-12-05T13:59:38Z</time>
      </trkpt>
      <trkpt lat="46.5988" lon="5.52012">
        <ele>491.37</ele>
        <time>2013-12-05T13:59:57Z</time>
      </trkpt>
      <trkpt lat="46.59867" lon="5.52026">
        <ele>491.37</ele>
        <time>2013-12-05T14:00:11Z</time>
      </trkpt>
      <trkpt lat="46.59847" lon="5.52034">
        <ele>491.85</ele>
        <time>2013-12-05T14:00:29Z</time>
      </trkpt>
      <trkpt lat="46.59827" lon="5.52034">
        <ele>491.85</ele>
        <time>2013-12-05T14:00:46Z</time>
      </trkpt>
      <trkpt lat="46.59807" lon="5.52034">
        <ele>491.85</ele>
        <time>2013-12-05T14:01:03Z</time>
      </trkpt>
      <trkpt lat="46.59788" lon="5.52037">
        <ele>492.81</ele>
        <time>2013-12-05T14:01:20Z</time>
      </trkpt>
      <trkpt lat="46.5977" lon="5.52041">
        <ele>492.81</ele>
        <time>2013-12-05T14:01:37Z</time>
      </trkpt>
      <trkpt lat="46.5976" lon="5.52042">
        <ele>491.85</ele>
        <time>2013-12-05T14:01:45Z</time>
      </trkpt>
      <trkpt lat="46.59745" lon="5.5204">
        <ele>491.37</ele>
        <time>2013-12-05T14:01:59Z</time>
      </trkpt>
      <trkpt lat="46.59739" lon="5.5204">
        <ele>491.37</ele>
        <time>2013-12-05T14:02:04Z</time>
      </trkpt>
      <trkpt lat="46.59737" lon="5.5204">
        <ele>490.89</ele>
        <time>2013-12-05T14:02:06Z</time>
      </trkpt>
      <trkpt lat="46.59719" lon="5.52039">
        <ele>489.93</ele>
        <time>2013-12-05T14:02:21Z</time>
      </trkpt>
      <trkpt lat="46.59705" lon="5.52046">
        <ele>488.97</ele>
        <time>2013-12-05T14:02:37Z</time>
      </trkpt>
      <trkpt lat="46.59689" lon="5.52056">
        <ele>487.53</ele>
        <time>2013-12-05T14:02:53Z</time>
      </trkpt>
      <trkpt lat="46.59669" lon="5.52063">
        <ele>485.12</ele>
        <time>2013-12-05T14:03:10Z</time>
      </trkpt>
      <trkpt lat="46.59659" lon="5.52068">
        <ele>484.16</ele>
        <time>2013-12-05T14:03:22Z</time>
      </trkpt>
      <trkpt lat="46.59649" lon="5.52082">
        <ele>481.28</ele>
        <time>2013-12-05T14:03:41Z</time>
      </trkpt>
      <trkpt lat="46.59634" lon="5.52096">
        <ele>478.87</ele>
        <time>2013-12-05T14:03:58Z</time>
      </trkpt>
      <trkpt lat="46.59616" lon="5.52112">
        <ele>476.95</ele>
        <time>2013-12-05T14:04:19Z</time>
      </trkpt>
      <trkpt lat="46.59604" lon="5.52127">
        <ele>476.95</ele>
        <time>2013-12-05T14:04:34Z</time>
      </trkpt>
      <trkpt lat="46.59601" lon="5.52136">
        <ele>476.95</ele>
        <time>2013-12-05T14:04:42Z</time>
      </trkpt>
      <trkpt lat="46.59594" lon="5.52158">
        <ele>476.95</ele>
        <time>2013-12-05T14:04:57Z</time>
      </trkpt>
      <trkpt lat="46.59587" lon="5.52179">
        <ele>479.35</ele>
        <time>2013-12-05T14:05:13Z</time>
      </trkpt>
      <trkpt lat="46.5958" lon="5.52196">
        <ele>480.32</ele>
        <time>2013-12-05T14:05:28Z</time>
      </trkpt>
      <trkpt lat="46.59571" lon="5.52212">
        <ele>481.76</ele>
        <time>2013-12-05T14:05:43Z</time>
      </trkpt>
      <trkpt lat="46.59563" lon="5.52229">
        <ele>484.16</ele>
        <time>2013-12-05T14:06:01Z</time>
      </trkpt>
      <trkpt lat="46.59552" lon="5.52244">
        <ele>487.05</ele>
        <time>2013-12-05T14:06:17Z</time>
      </trkpt>
      <trkpt lat="46.59541" lon="5.52255">
        <ele>488.97</ele>
        <time>2013-12-05T14:06:31Z</time>
      </trkpt>
      <trkpt lat="46.59529" lon="5.5226">
        <ele>490.89</ele>
        <time>2013-12-05T14:06:45Z</time>
      </trkpt>
      <trkpt lat="46.59518" lon="5.52264">
        <ele>491.85</ele>
        <time>2013-12-05T14:07:01Z</time>
      </trkpt>
      <trkpt lat="46.59524" lon="5.52267">
        <ele>493.77</ele>
        <time>2013-12-05T14:07:16Z</time>
      </trkpt>
      <trkpt lat="46.59536" lon="5.52277">
        <ele>495.22</ele>
        <time>2013-12-05T14:07:31Z</time>
      </trkpt>
      <trkpt lat="46.59547" lon="5.5229">
        <ele>496.66</ele>
        <time>2013-12-05T14:07:48Z</time>
      </trkpt>
      <trkpt lat="46.59551" lon="5.52295">
        <ele>497.14</ele>
        <time>2013-12-05T14:07:54Z</time>
      </trkpt>
      <trkpt lat="46.59562" lon="5.5231">
        <ele>500.02</ele>
        <time>2013-12-05T14:08:10Z</time>
      </trkpt>
      <trkpt lat="46.59572" lon="5.52327">
        <ele>501.46</ele>
        <time>2013-12-05T14:08:27Z</time>
      </trkpt>
      <trkpt lat="46.59584" lon="5.52348">
        <ele>503.87</ele>
        <time>2013-12-05T14:08:44Z</time>
      </trkpt>
      <trkpt lat="46.59592" lon="5.52363">
        <ele>505.79</ele>
        <time>2013-12-05T14:08:58Z</time>
      </trkpt>
      <trkpt lat="46.596" lon="5.52378">
        <ele>507.71</ele>
        <time>2013-12-05T14:09:13Z</time>
      </trkpt>
      <trkpt lat="46.59606" lon="5.5239">
        <ele>509.16</ele>
        <time>2013-12-05T14:09:24Z</time>
      </trkpt>
      <trkpt lat="46.59615" lon="5.52404">
        <ele>511.08</ele>
        <time>2013-12-05T14:09:38Z</time>
      </trkpt>
      <trkpt lat="46.59627" lon="5.5242">
        <ele>513</ele>
        <time>2013-12-05T14:09:55Z</time>
      </trkpt>
      <trkpt lat="46.59634" lon="5.52436">
        <ele>514.44</ele>
        <time>2013-12-05T14:10:09Z</time>
      </trkpt>
      <trkpt lat="46.59641" lon="5.52455">
        <ele>516.85</ele>
        <time>2013-12-05T14:10:24Z</time>
      </trkpt>
      <trkpt lat="46.59649" lon="5.52473">
        <ele>518.29</ele>
        <time>2013-12-05T14:10:39Z</time>
      </trkpt>
      <trkpt lat="46.59655" lon="5.52493">
        <ele>519.73</ele>
        <time>2013-12-05T14:10:55Z</time>
      </trkpt>
      <trkpt lat="46.59663" lon="5.52513">
        <ele>521.65</ele>
        <time>2013-12-05T14:11:12Z</time>
      </trkpt>
      <trkpt lat="46.5967" lon="5.5253">
        <ele>523.09</ele>
        <time>2013-12-05T14:11:27Z</time>
      </trkpt>
      <trkpt lat="46.59681" lon="5.5255">
        <ele>524.06</ele>
        <time>2013-12-05T14:11:44Z</time>
      </trkpt>
      <trkpt lat="46.59692" lon="5.52567">
        <ele>525.5</ele>
        <time>2013-12-05T14:11:58Z</time>
      </trkpt>
      <trkpt lat="46.59695" lon="5.52591">
        <ele>526.46</ele>
        <time>2013-12-05T14:12:15Z</time>
      </trkpt>
      <trkpt lat="46.59689" lon="5.52606">
        <ele>527.42</ele>
        <time>2013-12-05T14:12:28Z</time>
      </trkpt>
      <trkpt lat="46.5968" lon="5.52627">
        <ele>528.38</ele>
        <time>2013-12-05T14:12:44Z</time>
      </trkpt>
      <trkpt lat="46.5967" lon="5.5265">
        <ele>528.86</ele>
        <time>2013-12-05T14:13:00Z</time>
      </trkpt>
      <trkpt lat="46.59662" lon="5.52661">
        <ele>527.42</ele>
        <time>2013-12-05T14:13:12Z</time>
      </trkpt>
      <trkpt lat="46.59646" lon="5.52662">
        <ele>524.54</ele>
        <time>2013-12-05T14:13:28Z</time>
      </trkpt>
      <trkpt lat="46.59631" lon="5.52659">
        <ele>522.61</ele>
        <time>2013-12-05T14:13:42Z</time>
      </trkpt>
      <trkpt lat="46.59612" lon="5.52661">
        <ele>520.69</ele>
        <time>2013-12-05T14:13:59Z</time>
      </trkpt>
      <trkpt lat="46.59595" lon="5.52667">
        <ele>519.25</ele>
        <time>2013-12-05T14:14:16Z</time>
      </trkpt>
      <trkpt lat="46.59574" lon="5.5268">
        <ele>518.29</ele>
        <time>2013-12-05T14:14:36Z</time>
      </trkpt>
      <trkpt lat="46.59561" lon="5.5269">
        <ele>517.81</ele>
        <time>2013-12-05T14:14:49Z</time>
      </trkpt>
      <trkpt lat="46.59559" lon="5.52693">
        <ele>517.33</ele>
        <time>2013-12-05T14:14:52Z</time>
      </trkpt>
      <trkpt lat="46.59552" lon="5.52714">
        <ele>516.37</ele>
        <time>2013-12-05T14:15:09Z</time>
      </trkpt>
      <trkpt lat="46.59548" lon="5.5273">
        <ele>516.37</ele>
        <time>2013-12-05T14:15:26Z</time>
      </trkpt>
      <trkpt lat="46.59544" lon="5.52746">
        <ele>516.37</ele>
        <time>2013-12-05T14:15:44Z</time>
      </trkpt>
      <trkpt lat="46.5954" lon="5.52765">
        <ele>515.88</ele>
        <time>2013-12-05T14:15:59Z</time>
      </trkpt>
      <trkpt lat="46.59531" lon="5.52789">
        <ele>515.4</ele>
        <time>2013-12-05T14:16:16Z</time>
      </trkpt>
      <trkpt lat="46.59523" lon="5.5281">
        <ele>514.92</ele>
        <time>2013-12-05T14:16:33Z</time>
      </trkpt>
      <trkpt lat="46.59528" lon="5.5281">
        <ele>514.92</ele>
        <time>2013-12-05T14:16:48Z</time>
      </trkpt>
      <trkpt lat="46.59528" lon="5.5281">
        <ele>515.4</ele>
        <time>2013-12-05T14:17:23Z</time>
      </trkpt>
      <trkpt lat="46.59529" lon="5.52806">
        <ele>515.4</ele>
        <time>2013-12-05T14:17:48Z</time>
      </trkpt>
      <trkpt lat="46.59526" lon="5.52802">
        <ele>515.4</ele>
        <time>2013-12-05T14:18:09Z</time>
      </trkpt>
      <trkpt lat="46.59527" lon="5.52798">
        <ele>515.4</ele>
        <time>2013-12-05T14:18:33Z</time>
      </trkpt>
      <trkpt lat="46.5953" lon="5.528">
        <ele>515.4</ele>
        <time>2013-12-05T14:18:52Z</time>
      </trkpt>
      <trkpt lat="46.59539" lon="5.52808">
        <ele>515.4</ele>
        <time>2013-12-05T14:19:08Z</time>
      </trkpt>
      <trkpt lat="46.59551" lon="5.52816">
        <ele>515.4</ele>
        <time>2013-12-05T14:19:24Z</time>
      </trkpt>
      <trkpt lat="46.59563" lon="5.52819">
        <ele>515.4</ele>
        <time>2013-12-05T14:19:40Z</time>
      </trkpt>
      <trkpt lat="46.59578" lon="5.5282">
        <ele>514.44</ele>
        <time>2013-12-05T14:19:57Z</time>
      </trkpt>
      <trkpt lat="46.59596" lon="5.52819">
        <ele>512.04</ele>
        <time>2013-12-05T14:20:15Z</time>
      </trkpt>
      <trkpt lat="46.59611" lon="5.52821">
        <ele>509.16</ele>
        <time>2013-12-05T14:20:32Z</time>
      </trkpt>
      <trkpt lat="46.59626" lon="5.52822">
        <ele>507.71</ele>
        <time>2013-12-05T14:20:50Z</time>
      </trkpt>
      <trkpt lat="46.59643" lon="5.52826">
        <ele>507.23</ele>
        <time>2013-12-05T14:21:06Z</time>
      </trkpt>
      <trkpt lat="46.59652" lon="5.52828">
        <ele>507.23</ele>
        <time>2013-12-05T14:21:23Z</time>
      </trkpt>
      <trkpt lat="46.59657" lon="5.52827">
        <ele>507.23</ele>
        <time>2013-12-05T14:21:28Z</time>
      </trkpt>
      <trkpt lat="46.59671" lon="5.5283">
        <ele>508.19</ele>
        <time>2013-12-05T14:21:40Z</time>
      </trkpt>
      <trkpt lat="46.59687" lon="5.52837">
        <ele>508.67</ele>
        <time>2013-12-05T14:21:55Z</time>
      </trkpt>
      <trkpt lat="46.59705" lon="5.52847">
        <ele>508.67</ele>
        <time>2013-12-05T14:22:14Z</time>
      </trkpt>
      <trkpt lat="46.59713" lon="5.52857">
        <ele>507.23</ele>
        <time>2013-12-05T14:22:25Z</time>
      </trkpt>
      <trkpt lat="46.59726" lon="5.52883">
        <ele>506.75</ele>
        <time>2013-12-05T14:22:45Z</time>
      </trkpt>
      <trkpt lat="46.59737" lon="5.52907">
        <ele>505.79</ele>
        <time>2013-12-05T14:23:04Z</time>
      </trkpt>
      <trkpt lat="46.5975" lon="5.52921">
        <ele>503.87</ele>
        <time>2013-12-05T14:23:20Z</time>
      </trkpt>
      <trkpt lat="46.59764" lon="5.52932">
        <ele>502.91</ele>
        <time>2013-12-05T14:23:36Z</time>
      </trkpt>
      <trkpt lat="46.59778" lon="5.52938">
        <ele>502.43</ele>
        <time>2013-12-05T14:23:52Z</time>
      </trkpt>
      <trkpt lat="46.5979" lon="5.52948">
        <ele>502.43</ele>
        <time>2013-12-05T14:24:10Z</time>
      </trkpt>
      <trkpt lat="46.59804" lon="5.52959">
        <ele>501.46</ele>
        <time>2013-12-05T14:24:27Z</time>
      </trkpt>
      <trkpt lat="46.5981" lon="5.52978">
        <ele>500.98</ele>
        <time>2013-12-05T14:24:42Z</time>
      </trkpt>
      <trkpt lat="46.59818" lon="5.52997">
        <ele>500.5</ele>
        <time>2013-12-05T14:24:59Z</time>
      </trkpt>
      <trkpt lat="46.59823" lon="5.53023">
        <ele>500.02</ele>
        <time>2013-12-05T14:25:16Z</time>
      </trkpt>
      <trkpt lat="46.59828" lon="5.53043">
        <ele>498.58</ele>
        <time>2013-12-05T14:25:31Z</time>
      </trkpt>
      <trkpt lat="46.59842" lon="5.53039">
        <ele>498.58</ele>
        <time>2013-12-05T14:25:48Z</time>
      </trkpt>
      <trkpt lat="46.59853" lon="5.53031">
        <ele>498.1</ele>
        <time>2013-12-05T14:26:07Z</time>
      </trkpt>
      <trkpt lat="46.59857" lon="5.53034">
        <ele>498.1</ele>
        <time>2013-12-05T14:26:23Z</time>
      </trkpt>
      <trkpt lat="46.59861" lon="5.53034">
        <ele>498.1</ele>
        <time>2013-12-05T14:26:29Z</time>
      </trkpt>
      <trkpt lat="46.59877" lon="5.53027">
        <ele>498.1</ele>
        <time>2013-12-05T14:26:46Z</time>
      </trkpt>
      <trkpt lat="46.59892" lon="5.53032">
        <ele>500.02</ele>
        <time>2013-12-05T14:27:01Z</time>
      </trkpt>
      <trkpt lat="46.59906" lon="5.53033">
        <ele>502.91</ele>
        <time>2013-12-05T14:27:16Z</time>
      </trkpt>
      <trkpt lat="46.5992" lon="5.53032">
        <ele>504.35</ele>
        <time>2013-12-05T14:27:31Z</time>
      </trkpt>
      <trkpt lat="46.59933" lon="5.53032">
        <ele>505.79</ele>
        <time>2013-12-05T14:27:45Z</time>
      </trkpt>
      <trkpt lat="46.59948" lon="5.53031">
        <ele>507.71</ele>
        <time>2013-12-05T14:28:01Z</time>
      </trkpt>
      <trkpt lat="46.59962" lon="5.5303">
        <ele>508.67</ele>
        <time>2013-12-05T14:28:18Z</time>
      </trkpt>
      <trkpt lat="46.59975" lon="5.53027">
        <ele>510.12</ele>
        <time>2013-12-05T14:28:33Z</time>
      </trkpt>
      <trkpt lat="46.59995" lon="5.5302">
        <ele>511.08</ele>
        <time>2013-12-05T14:28:51Z</time>
      </trkpt>
      <trkpt lat="46.60013" lon="5.53013">
        <ele>512.04</ele>
        <time>2013-12-05T14:29:07Z</time>
      </trkpt>
      <trkpt lat="46.60027" lon="5.5301">
        <ele>512.52</ele>
        <time>2013-12-05T14:29:21Z</time>
      </trkpt>
      <trkpt lat="46.60048" lon="5.53001">
        <ele>513</ele>
        <time>2013-12-05T14:29:40Z</time>
      </trkpt>
      <trkpt lat="46.60067" lon="5.52996">
        <ele>513.48</ele>
        <time>2013-12-05T14:29:58Z</time>
      </trkpt>
      <trkpt lat="46.60087" lon="5.52997">
        <ele>513.48</ele>
        <time>2013-12-05T14:30:15Z</time>
      </trkpt>
      <trkpt lat="46.60106" lon="5.52997">
        <ele>513.48</ele>
        <time>2013-12-05T14:30:33Z</time>
      </trkpt>
      <trkpt lat="46.60121" lon="5.52996">
        <ele>513.48</ele>
        <time>2013-12-05T14:30:47Z</time>
      </trkpt>
      <trkpt lat="46.60141" lon="5.52995">
        <ele>513.48</ele>
        <time>2013-12-05T14:31:05Z</time>
      </trkpt>
      <trkpt lat="46.60157" lon="5.52994">
        <ele>513.48</ele>
        <time>2013-12-05T14:31:20Z</time>
      </trkpt>
      <trkpt lat="46.60177" lon="5.52994">
        <ele>513.48</ele>
        <time>2013-12-05T14:31:38Z</time>
      </trkpt>
      <trkpt lat="46.60195" lon="5.52994">
        <ele>513.48</ele>
        <time>2013-12-05T14:31:55Z</time>
      </trkpt>
      <trkpt lat="46.60212" lon="5.52998">
        <ele>513.48</ele>
        <time>2013-12-05T14:32:11Z</time>
      </trkpt>
      <trkpt lat="46.6023" lon="5.53002">
        <ele>513.48</ele>
        <time>2013-12-05T14:32:28Z</time>
      </trkpt>
      <trkpt lat="46.60248" lon="5.52999">
        <ele>513.96</ele>
        <time>2013-12-05T14:32:45Z</time>
      </trkpt>
      <trkpt lat="46.60253" lon="5.52997">
        <ele>513.96</ele>
        <time>2013-12-05T14:32:50Z</time>
      </trkpt>
      <trkpt lat="46.60273" lon="5.52991">
        <ele>514.44</ele>
        <time>2013-12-05T14:33:08Z</time>
      </trkpt>
      <trkpt lat="46.60289" lon="5.52986">
        <ele>514.44</ele>
        <time>2013-12-05T14:33:24Z</time>
      </trkpt>
      <trkpt lat="46.60295" lon="5.52982">
        <ele>514.44</ele>
        <time>2013-12-05T14:33:31Z</time>
      </trkpt>
      <trkpt lat="46.60308" lon="5.52978">
        <ele>514.44</ele>
        <time>2013-12-05T14:33:46Z</time>
      </trkpt>
      <trkpt lat="46.60311" lon="5.52981">
        <ele>514.44</ele>
        <time>2013-12-05T14:34:02Z</time>
      </trkpt>
      <trkpt lat="46.60301" lon="5.52985">
        <ele>514.44</ele>
        <time>2013-12-05T14:34:20Z</time>
      </trkpt>
      <trkpt lat="46.60299" lon="5.52985">
        <ele>514.44</ele>
        <time>2013-12-05T14:34:40Z</time>
      </trkpt>
      <trkpt lat="46.60302" lon="5.52983">
        <ele>513.96</ele>
        <time>2013-12-05T14:35:02Z</time>
      </trkpt>
      <trkpt lat="46.60317" lon="5.5298">
        <ele>514.44</ele>
        <time>2013-12-05T14:35:19Z</time>
      </trkpt>
      <trkpt lat="46.6033" lon="5.52979">
        <ele>512.52</ele>
        <time>2013-12-05T14:35:34Z</time>
      </trkpt>
      <trkpt lat="46.60349" lon="5.5298">
        <ele>511.08</ele>
        <time>2013-12-05T14:35:53Z</time>
      </trkpt>
      <trkpt lat="46.60362" lon="5.52979">
        <ele>510.12</ele>
        <time>2013-12-05T14:36:10Z</time>
      </trkpt>
      <trkpt lat="46.60374" lon="5.52979">
        <ele>508.67</ele>
        <time>2013-12-05T14:36:27Z</time>
      </trkpt>
      <trkpt lat="46.60387" lon="5.52983">
        <ele>507.71</ele>
        <time>2013-12-05T14:36:41Z</time>
      </trkpt>
      <trkpt lat="46.60399" lon="5.52992">
        <ele>506.27</ele>
        <time>2013-12-05T14:36:55Z</time>
      </trkpt>
      <trkpt lat="46.60408" lon="5.53001">
        <ele>505.79</ele>
        <time>2013-12-05T14:37:08Z</time>
      </trkpt>
      <trkpt lat="46.60416" lon="5.53008">
        <ele>505.31</ele>
        <time>2013-12-05T14:37:22Z</time>
      </trkpt>
      <trkpt lat="46.60425" lon="5.53014">
        <ele>503.39</ele>
        <time>2013-12-05T14:37:36Z</time>
      </trkpt>
      <trkpt lat="46.60438" lon="5.53016">
        <ele>502.43</ele>
        <time>2013-12-05T14:37:51Z</time>
      </trkpt>
      <trkpt lat="46.6045" lon="5.53022">
        <ele>501.46</ele>
        <time>2013-12-05T14:38:04Z</time>
      </trkpt>
      <trkpt lat="46.60465" lon="5.53024">
        <ele>500.98</ele>
        <time>2013-12-05T14:38:19Z</time>
      </trkpt>
      <trkpt lat="46.60478" lon="5.53026">
        <ele>500.98</ele>
        <time>2013-12-05T14:38:37Z</time>
      </trkpt>
      <trkpt lat="46.60489" lon="5.53028">
        <ele>500.02</ele>
        <time>2013-12-05T14:38:53Z</time>
      </trkpt>
      <trkpt lat="46.60502" lon="5.5303">
        <ele>499.54</ele>
        <time>2013-12-05T14:39:09Z</time>
      </trkpt>
      <trkpt lat="46.60518" lon="5.53027">
        <ele>499.54</ele>
        <time>2013-12-05T14:39:26Z</time>
      </trkpt>
      <trkpt lat="46.6053" lon="5.53026">
        <ele>499.06</ele>
        <time>2013-12-05T14:39:40Z</time>
      </trkpt>
      <trkpt lat="46.60544" lon="5.53024">
        <ele>498.1</ele>
        <time>2013-12-05T14:39:55Z</time>
      </trkpt>
      <trkpt lat="46.60558" lon="5.53021">
        <ele>497.14</ele>
        <time>2013-12-05T14:40:11Z</time>
      </trkpt>
      <trkpt lat="46.60573" lon="5.53027">
        <ele>496.18</ele>
        <time>2013-12-05T14:40:27Z</time>
      </trkpt>
      <trkpt lat="46.6058" lon="5.53039">
        <ele>497.62</ele>
        <time>2013-12-05T14:40:42Z</time>
      </trkpt>
      <trkpt lat="46.60591" lon="5.53045">
        <ele>497.62</ele>
        <time>2013-12-05T14:40:57Z</time>
      </trkpt>
      <trkpt lat="46.60605" lon="5.53043">
        <ele>496.18</ele>
        <time>2013-12-05T14:41:15Z</time>
      </trkpt>
      <trkpt lat="46.60609" lon="5.53042">
        <ele>495.7</ele>
        <time>2013-12-05T14:41:21Z</time>
      </trkpt>
      <trkpt lat="46.60621" lon="5.53043">
        <ele>494.74</ele>
        <time>2013-12-05T14:41:34Z</time>
      </trkpt>
      <trkpt lat="46.60632" lon="5.53042">
        <ele>493.29</ele>
        <time>2013-12-05T14:41:49Z</time>
      </trkpt>
      <trkpt lat="46.60644" lon="5.53041">
        <ele>491.85</ele>
        <time>2013-12-05T14:42:03Z</time>
      </trkpt>
      <trkpt lat="46.60662" lon="5.5304">
        <ele>490.41</ele>
        <time>2013-12-05T14:42:19Z</time>
      </trkpt>
      <trkpt lat="46.60675" lon="5.53041">
        <ele>488.49</ele>
        <time>2013-12-05T14:42:33Z</time>
      </trkpt>
      <trkpt lat="46.60692" lon="5.53043">
        <ele>487.53</ele>
        <time>2013-12-05T14:42:51Z</time>
      </trkpt>
      <trkpt lat="46.60708" lon="5.53043">
        <ele>486.08</ele>
        <time>2013-12-05T14:43:07Z</time>
      </trkpt>
      <trkpt lat="46.60723" lon="5.53043">
        <ele>486.08</ele>
        <time>2013-12-05T14:43:21Z</time>
      </trkpt>
      <trkpt lat="46.60738" lon="5.53046">
        <ele>486.08</ele>
        <time>2013-12-05T14:43:37Z</time>
      </trkpt>
      <trkpt lat="46.60751" lon="5.53045">
        <ele>486.08</ele>
        <time>2013-12-05T14:43:49Z</time>
      </trkpt>
      <trkpt lat="46.60762" lon="5.53044">
        <ele>487.05</ele>
        <time>2013-12-05T14:44:03Z</time>
      </trkpt>
      <trkpt lat="46.60776" lon="5.53046">
        <ele>488.97</ele>
        <time>2013-12-05T14:44:18Z</time>
      </trkpt>
      <trkpt lat="46.6079" lon="5.53049">
        <ele>490.41</ele>
        <time>2013-12-05T14:44:34Z</time>
      </trkpt>
      <trkpt lat="46.60806" lon="5.53053">
        <ele>490.89</ele>
        <time>2013-12-05T14:44:50Z</time>
      </trkpt>
      <trkpt lat="46.6082" lon="5.53056">
        <ele>490.89</ele>
        <time>2013-12-05T14:45:05Z</time>
      </trkpt>
      <trkpt lat="46.60831" lon="5.53061">
        <ele>490.89</ele>
        <time>2013-12-05T14:45:19Z</time>
      </trkpt>
      <trkpt lat="46.60854" lon="5.53069">
        <ele>491.37</ele>
        <time>2013-12-05T14:45:39Z</time>
      </trkpt>
      <trkpt lat="46.60872" lon="5.53077">
        <ele>491.37</ele>
        <time>2013-12-05T14:45:57Z</time>
      </trkpt>
      <trkpt lat="46.60889" lon="5.53087">
        <ele>491.37</ele>
        <time>2013-12-05T14:46:14Z</time>
      </trkpt>
      <trkpt lat="46.60905" lon="5.53096">
        <ele>490.41</ele>
        <time>2013-12-05T14:46:29Z</time>
      </trkpt>
      <trkpt lat="46.60916" lon="5.53103">
        <ele>489.93</ele>
        <time>2013-12-05T14:46:45Z</time>
      </trkpt>
      <trkpt lat="46.60931" lon="5.5311">
        <ele>488.49</ele>
        <time>2013-12-05T14:47:00Z</time>
      </trkpt>
      <trkpt lat="46.60949" lon="5.53122">
        <ele>487.53</ele>
        <time>2013-12-05T14:47:18Z</time>
      </trkpt>
      <trkpt lat="46.60963" lon="5.53131">
        <ele>487.53</ele>
        <time>2013-12-05T14:47:33Z</time>
      </trkpt>
      <trkpt lat="46.60976" lon="5.53136">
        <ele>487.53</ele>
        <time>2013-12-05T14:47:48Z</time>
      </trkpt>
      <trkpt lat="46.60989" lon="5.53141">
        <ele>487.05</ele>
        <time>2013-12-05T14:48:02Z</time>
      </trkpt>
      <trkpt lat="46.61002" lon="5.53146">
        <ele>487.05</ele>
        <time>2013-12-05T14:48:15Z</time>
      </trkpt>
      <trkpt lat="46.61018" lon="5.5315">
        <ele>486.56</ele>
        <time>2013-12-05T14:48:32Z</time>
      </trkpt>
      <trkpt lat="46.61033" lon="5.53153">
        <ele>486.56</ele>
        <time>2013-12-05T14:48:46Z</time>
      </trkpt>
      <trkpt lat="46.6105" lon="5.53156">
        <ele>486.08</ele>
        <time>2013-12-05T14:49:02Z</time>
      </trkpt>
      <trkpt lat="46.6107" lon="5.53159">
        <ele>485.6</ele>
        <time>2013-12-05T14:49:18Z</time>
      </trkpt>
      <trkpt lat="46.61086" lon="5.53161">
        <ele>485.12</ele>
        <time>2013-12-05T14:49:34Z</time>
      </trkpt>
      <trkpt lat="46.61101" lon="5.53163">
        <ele>484.16</ele>
        <time>2013-12-05T14:49:50Z</time>
      </trkpt>
      <trkpt lat="46.61116" lon="5.53167">
        <ele>482.72</ele>
        <time>2013-12-05T14:50:07Z</time>
      </trkpt>
      <trkpt lat="46.61136" lon="5.53172">
        <ele>481.76</ele>
        <time>2013-12-05T14:50:24Z</time>
      </trkpt>
      <trkpt lat="46.61154" lon="5.53177">
        <ele>481.28</ele>
        <time>2013-12-05T14:50:40Z</time>
      </trkpt>
      <trkpt lat="46.61171" lon="5.53183">
        <ele>479.35</ele>
        <time>2013-12-05T14:50:57Z</time>
      </trkpt>
      <trkpt lat="46.61187" lon="5.53189">
        <ele>478.87</ele>
        <time>2013-12-05T14:51:14Z</time>
      </trkpt>
      <trkpt lat="46.61204" lon="5.53194">
        <ele>477.91</ele>
        <time>2013-12-05T14:51:30Z</time>
      </trkpt>
      <trkpt lat="46.61215" lon="5.53197">
        <ele>477.91</ele>
        <time>2013-12-05T14:51:40Z</time>
      </trkpt>
      <trkpt lat="46.61222" lon="5.53198">
        <ele>477.91</ele>
        <time>2013-12-05T14:51:55Z</time>
      </trkpt>
      <trkpt lat="46.61227" lon="5.53201">
        <ele>477.91</ele>
        <time>2013-12-05T14:52:09Z</time>
      </trkpt>
      <trkpt lat="46.61243" lon="5.53208">
        <ele>476.95</ele>
        <time>2013-12-05T14:52:27Z</time>
      </trkpt>
      <trkpt lat="46.61259" lon="5.53213">
        <ele>475.99</ele>
        <time>2013-12-05T14:52:44Z</time>
      </trkpt>
      <trkpt lat="46.61272" lon="5.53215">
        <ele>475.03</ele>
        <time>2013-12-05T14:52:58Z</time>
      </trkpt>
      <trkpt lat="46.61287" lon="5.53219">
        <ele>474.07</ele>
        <time>2013-12-05T14:53:15Z</time>
      </trkpt>
      <trkpt lat="46.61303" lon="5.53222">
        <ele>473.11</ele>
        <time>2013-12-05T14:53:33Z</time>
      </trkpt>
      <trkpt lat="46.61317" lon="5.53226">
        <ele>472.63</ele>
        <time>2013-12-05T14:53:48Z</time>
      </trkpt>
      <trkpt lat="46.61337" lon="5.53232">
        <ele>472.14</ele>
        <time>2013-12-05T14:54:06Z</time>
      </trkpt>
      <trkpt lat="46.61355" lon="5.53237">
        <ele>471.18</ele>
        <time>2013-12-05T14:54:24Z</time>
      </trkpt>
      <trkpt lat="46.61373" lon="5.53241">
        <ele>470.22</ele>
        <time>2013-12-05T14:54:41Z</time>
      </trkpt>
      <trkpt lat="46.61389" lon="5.53243">
        <ele>469.26</ele>
        <time>2013-12-05T14:54:58Z</time>
      </trkpt>
      <trkpt lat="46.61406" lon="5.53246">
        <ele>468.78</ele>
        <time>2013-12-05T14:55:16Z</time>
      </trkpt>
      <trkpt lat="46.61421" lon="5.53248">
        <ele>468.78</ele>
        <time>2013-12-05T14:55:33Z</time>
      </trkpt>
      <trkpt lat="46.61437" lon="5.53252">
        <ele>468.3</ele>
        <time>2013-12-05T14:55:47Z</time>
      </trkpt>
      <trkpt lat="46.61458" lon="5.53256">
        <ele>467.34</ele>
        <time>2013-12-05T14:56:06Z</time>
      </trkpt>
      <trkpt lat="46.61476" lon="5.5326">
        <ele>466.38</ele>
        <time>2013-12-05T14:56:22Z</time>
      </trkpt>
      <trkpt lat="46.61498" lon="5.53266">
        <ele>465.9</ele>
        <time>2013-12-05T14:56:41Z</time>
      </trkpt>
      <trkpt lat="46.61516" lon="5.53268">
        <ele>464.93</ele>
        <time>2013-12-05T14:56:57Z</time>
      </trkpt>
      <trkpt lat="46.61532" lon="5.53272">
        <ele>464.45</ele>
        <time>2013-12-05T14:57:13Z</time>
      </trkpt>
      <trkpt lat="46.61545" lon="5.53276">
        <ele>464.45</ele>
        <time>2013-12-05T14:57:26Z</time>
      </trkpt>
      <trkpt lat="46.61564" lon="5.5328">
        <ele>463.97</ele>
        <time>2013-12-05T14:57:43Z</time>
      </trkpt>
      <trkpt lat="46.61578" lon="5.53282">
        <ele>463.97</ele>
        <time>2013-12-05T14:57:59Z</time>
      </trkpt>
      <trkpt lat="46.61595" lon="5.53287">
        <ele>463.01</ele>
        <time>2013-12-05T14:58:16Z</time>
      </trkpt>
      <trkpt lat="46.6161" lon="5.53288">
        <ele>463.01</ele>
        <time>2013-12-05T14:58:30Z</time>
      </trkpt>
      <trkpt lat="46.61628" lon="5.53292">
        <ele>462.53</ele>
        <time>2013-12-05T14:58:46Z</time>
      </trkpt>
      <trkpt lat="46.61647" lon="5.53292">
        <ele>462.05</ele>
        <time>2013-12-05T14:59:01Z</time>
      </trkpt>
      <trkpt lat="46.61661" lon="5.53299">
        <ele>461.57</ele>
        <time>2013-12-05T14:59:14Z</time>
      </trkpt>
      <trkpt lat="46.61682" lon="5.53304">
        <ele>461.09</ele>
        <time>2013-12-05T14:59:32Z</time>
      </trkpt>
      <trkpt lat="46.61703" lon="5.53306">
        <ele>459.65</ele>
        <time>2013-12-05T14:59:51Z</time>
      </trkpt>
      <trkpt lat="46.6172" lon="5.53306">
        <ele>458.69</ele>
        <time>2013-12-05T15:00:07Z</time>
      </trkpt>
      <trkpt lat="46.61737" lon="5.53307">
        <ele>457.72</ele>
        <time>2013-12-05T15:00:24Z</time>
      </trkpt>
      <trkpt lat="46.6175" lon="5.5331">
        <ele>457.24</ele>
        <time>2013-12-05T15:00:38Z</time>
      </trkpt>
      <trkpt lat="46.61757" lon="5.53312">
        <ele>456.76</ele>
        <time>2013-12-05T15:01:00Z</time>
      </trkpt>
      <trkpt lat="46.61764" lon="5.53312">
        <ele>456.28</ele>
        <time>2013-12-05T15:01:19Z</time>
      </trkpt>
      <trkpt lat="46.61771" lon="5.53312">
        <ele>456.28</ele>
        <time>2013-12-05T15:01:38Z</time>
      </trkpt>
      <trkpt lat="46.61774" lon="5.53319">
        <ele>455.8</ele>
        <time>2013-12-05T15:01:59Z</time>
      </trkpt>
      <trkpt lat="46.61776" lon="5.53317">
        <ele>455.32</ele>
        <time>2013-12-05T15:02:14Z</time>
      </trkpt>
      <trkpt lat="46.61779" lon="5.53319">
        <ele>455.32</ele>
        <time>2013-12-05T15:02:29Z</time>
      </trkpt>
      <trkpt lat="46.61787" lon="5.53321">
        <ele>455.32</ele>
        <time>2013-12-05T15:02:51Z</time>
      </trkpt>
      <trkpt lat="46.618" lon="5.53325">
        <ele>455.32</ele>
        <time>2013-12-05T15:03:09Z</time>
      </trkpt>
      <trkpt lat="46.61814" lon="5.53326">
        <ele>455.32</ele>
        <time>2013-12-05T15:03:26Z</time>
      </trkpt>
      <trkpt lat="46.61825" lon="5.53332">
        <ele>454.84</ele>
        <time>2013-12-05T15:03:43Z</time>
      </trkpt>
      <trkpt lat="46.61831" lon="5.53333">
        <ele>454.84</ele>
        <time>2013-12-05T15:04:02Z</time>
      </trkpt>
      <trkpt lat="46.61835" lon="5.53332">
        <ele>454.36</ele>
        <time>2013-12-05T15:04:22Z</time>
      </trkpt>
      <trkpt lat="46.61841" lon="5.53335">
        <ele>454.36</ele>
        <time>2013-12-05T15:04:40Z</time>
      </trkpt>
      <trkpt lat="46.61855" lon="5.53341">
        <ele>454.36</ele>
        <time>2013-12-05T15:05:00Z</time>
      </trkpt>
      <trkpt lat="46.61872" lon="5.53342">
        <ele>453.4</ele>
        <time>2013-12-05T15:05:16Z</time>
      </trkpt>
      <trkpt lat="46.61893" lon="5.53344">
        <ele>451.96</ele>
        <time>2013-12-05T15:05:36Z</time>
      </trkpt>
      <trkpt lat="46.61912" lon="5.53346">
        <ele>451</ele>
        <time>2013-12-05T15:05:52Z</time>
      </trkpt>
      <trkpt lat="46.61927" lon="5.53346">
        <ele>450.03</ele>
        <time>2013-12-05T15:06:07Z</time>
      </trkpt>
      <trkpt lat="46.61935" lon="5.53347">
        <ele>450.03</ele>
        <time>2013-12-05T15:06:16Z</time>
      </trkpt>
      <trkpt lat="46.61954" lon="5.53346">
        <ele>449.55</ele>
        <time>2013-12-05T15:06:33Z</time>
      </trkpt>
      <trkpt lat="46.6197" lon="5.53347">
        <ele>449.55</ele>
        <time>2013-12-05T15:06:48Z</time>
      </trkpt>
      <trkpt lat="46.61988" lon="5.53346">
        <ele>449.07</ele>
        <time>2013-12-05T15:07:05Z</time>
      </trkpt>
      <trkpt lat="46.62008" lon="5.53346">
        <ele>449.07</ele>
        <time>2013-12-05T15:07:21Z</time>
      </trkpt>
      <trkpt lat="46.62019" lon="5.53344">
        <ele>449.07</ele>
        <time>2013-12-05T15:07:30Z</time>
      </trkpt>
      <trkpt lat="46.62038" lon="5.53344">
        <ele>449.07</ele>
        <time>2013-12-05T15:07:47Z</time>
      </trkpt>
      <trkpt lat="46.62054" lon="5.53343">
        <ele>449.07</ele>
        <time>2013-12-05T15:08:01Z</time>
      </trkpt>
      <trkpt lat="46.62064" lon="5.53341">
        <ele>449.07</ele>
        <time>2013-12-05T15:08:11Z</time>
      </trkpt>
      <trkpt lat="46.62081" lon="5.53343">
        <ele>449.07</ele>
        <time>2013-12-05T15:08:27Z</time>
      </trkpt>
      <trkpt lat="46.62096" lon="5.53342">
        <ele>449.07</ele>
        <time>2013-12-05T15:08:41Z</time>
      </trkpt>
      <trkpt lat="46.62117" lon="5.53342">
        <ele>449.07</ele>
        <time>2013-12-05T15:08:59Z</time>
      </trkpt>
      <trkpt lat="46.62136" lon="5.53335">
        <ele>449.07</ele>
        <time>2013-12-05T15:09:15Z</time>
      </trkpt>
      <trkpt lat="46.62155" lon="5.53329">
        <ele>447.63</ele>
        <time>2013-12-05T15:09:32Z</time>
      </trkpt>
      <trkpt lat="46.62173" lon="5.53324">
        <ele>446.19</ele>
        <time>2013-12-05T15:09:48Z</time>
      </trkpt>
      <trkpt lat="46.62192" lon="5.53319">
        <ele>445.23</ele>
        <time>2013-12-05T15:10:03Z</time>
      </trkpt>
      <trkpt lat="46.62207" lon="5.53314">
        <ele>443.79</ele>
        <time>2013-12-05T15:10:16Z</time>
      </trkpt>
      <trkpt lat="46.62222" lon="5.53305">
        <ele>442.82</ele>
        <time>2013-12-05T15:10:30Z</time>
      </trkpt>
      <trkpt lat="46.62223" lon="5.53304">
        <ele>442.82</ele>
        <time>2013-12-05T15:10:31Z</time>
      </trkpt>
      <trkpt lat="46.62243" lon="5.53291">
        <ele>440.9</ele>
        <time>2013-12-05T15:10:50Z</time>
      </trkpt>
      <trkpt lat="46.62257" lon="5.53281">
        <ele>439.94</ele>
        <time>2013-12-05T15:11:05Z</time>
      </trkpt>
      <trkpt lat="46.62275" lon="5.53265">
        <ele>438.5</ele>
        <time>2013-12-05T15:11:21Z</time>
      </trkpt>
      <trkpt lat="46.62294" lon="5.53251">
        <ele>437.06</ele>
        <time>2013-12-05T15:11:38Z</time>
      </trkpt>
      <trkpt lat="46.62314" lon="5.53236">
        <ele>436.1</ele>
        <time>2013-12-05T15:11:56Z</time>
      </trkpt>
      <trkpt lat="46.62332" lon="5.53225">
        <ele>434.65</ele>
        <time>2013-12-05T15:12:12Z</time>
      </trkpt>
      <trkpt lat="46.62351" lon="5.53213">
        <ele>434.17</ele>
        <time>2013-12-05T15:12:30Z</time>
      </trkpt>
      <trkpt lat="46.62371" lon="5.53207">
        <ele>433.69</ele>
        <time>2013-12-05T15:12:46Z</time>
      </trkpt>
      <trkpt lat="46.62387" lon="5.53206">
        <ele>433.21</ele>
        <time>2013-12-05T15:13:00Z</time>
      </trkpt>
      <trkpt lat="46.62403" lon="5.53206">
        <ele>433.21</ele>
        <time>2013-12-05T15:13:14Z</time>
      </trkpt>
      <trkpt lat="46.62422" lon="5.53208">
        <ele>433.21</ele>
        <time>2013-12-05T15:13:32Z</time>
      </trkpt>
      <trkpt lat="46.62438" lon="5.5321">
        <ele>433.21</ele>
        <time>2013-12-05T15:13:47Z</time>
      </trkpt>
      <trkpt lat="46.62457" lon="5.5321">
        <ele>433.21</ele>
        <time>2013-12-05T15:14:03Z</time>
      </trkpt>
      <trkpt lat="46.62483" lon="5.53212">
        <ele>433.21</ele>
        <time>2013-12-05T15:14:25Z</time>
      </trkpt>
      <trkpt lat="46.62504" lon="5.53216">
        <ele>432.25</ele>
        <time>2013-12-05T15:14:44Z</time>
      </trkpt>
      <trkpt lat="46.62507" lon="5.53218">
        <ele>432.25</ele>
        <time>2013-12-05T15:15:08Z</time>
      </trkpt>
      <trkpt lat="46.62518" lon="5.53216">
        <ele>431.77</ele>
        <time>2013-12-05T15:15:22Z</time>
      </trkpt>
      <trkpt lat="46.62533" lon="5.53221">
        <ele>430.81</ele>
        <time>2013-12-05T15:15:39Z</time>
      </trkpt>
      <trkpt lat="46.62533" lon="5.53221">
        <ele>430.81</ele>
        <time>2013-12-05T15:15:59Z</time>
      </trkpt>
      <trkpt lat="46.62532" lon="5.53223">
        <ele>430.81</ele>
        <time>2013-12-05T15:16:24Z</time>
      </trkpt>
      <trkpt lat="46.62534" lon="5.53223">
        <ele>430.81</ele>
        <time>2013-12-05T15:16:44Z</time>
      </trkpt>
      <trkpt lat="46.62532" lon="5.53222">
        <ele>432.73</ele>
        <time>2013-12-05T15:17:08Z</time>
      </trkpt>
      <trkpt lat="46.62535" lon="5.53223">
        <ele>432.25</ele>
        <time>2013-12-05T15:17:28Z</time>
      </trkpt>
      <trkpt lat="46.62538" lon="5.5322">
        <ele>432.25</ele>
        <time>2013-12-05T15:17:46Z</time>
      </trkpt>
      <trkpt lat="46.6254" lon="5.53222">
        <ele>432.25</ele>
        <time>2013-12-05T15:18:02Z</time>
      </trkpt>
      <trkpt lat="46.62547" lon="5.5322">
        <ele>432.25</ele>
        <time>2013-12-05T15:18:24Z</time>
      </trkpt>
      <trkpt lat="46.62556" lon="5.53211">
        <ele>431.29</ele>
        <time>2013-12-05T15:18:40Z</time>
      </trkpt>
      <trkpt lat="46.6256" lon="5.53201">
        <ele>431.29</ele>
        <time>2013-12-05T15:18:52Z</time>
      </trkpt>
      <trkpt lat="46.62572" lon="5.53188">
        <ele>430.81</ele>
        <time>2013-12-05T15:19:07Z</time>
      </trkpt>
      <trkpt lat="46.62588" lon="5.53166">
        <ele>430.81</ele>
        <time>2013-12-05T15:19:26Z</time>
      </trkpt>
      <trkpt lat="46.62597" lon="5.5315">
        <ele>430.81</ele>
        <time>2013-12-05T15:19:38Z</time>
      </trkpt>
      <trkpt lat="46.62603" lon="5.53143">
        <ele>430.81</ele>
        <time>2013-12-05T15:19:45Z</time>
      </trkpt>
      <trkpt lat="46.62616" lon="5.5312">
        <ele>430.81</ele>
        <time>2013-12-05T15:20:03Z</time>
      </trkpt>
      <trkpt lat="46.6262" lon="5.53111">
        <ele>432.25</ele>
        <time>2013-12-05T15:20:10Z</time>
      </trkpt>
      <trkpt lat="46.62627" lon="5.5309">
        <ele>433.21</ele>
        <time>2013-12-05T15:20:25Z</time>
      </trkpt>
      <trkpt lat="46.62631" lon="5.53075">
        <ele>433.69</ele>
        <time>2013-12-05T15:20:37Z</time>
      </trkpt>
      <trkpt lat="46.62631" lon="5.53072">
        <ele>434.65</ele>
        <time>2013-12-05T15:20:39Z</time>
      </trkpt>
      <trkpt lat="46.62637" lon="5.53049">
        <ele>435.61</ele>
        <time>2013-12-05T15:20:55Z</time>
      </trkpt>
      <trkpt lat="46.62643" lon="5.53029">
        <ele>436.58</ele>
        <time>2013-12-05T15:21:10Z</time>
      </trkpt>
      <trkpt lat="46.62646" lon="5.5301">
        <ele>437.06</ele>
        <time>2013-12-05T15:21:26Z</time>
      </trkpt>
      <trkpt lat="46.62649" lon="5.53004">
        <ele>437.54</ele>
        <time>2013-12-05T15:21:45Z</time>
      </trkpt>
      <trkpt lat="46.62651" lon="5.52985">
        <ele>438.5</ele>
        <time>2013-12-05T15:21:58Z</time>
      </trkpt>
      <trkpt lat="46.62655" lon="5.52965">
        <ele>438.98</ele>
        <time>2013-12-05T15:22:12Z</time>
      </trkpt>
      <trkpt lat="46.62659" lon="5.52946">
        <ele>439.46</ele>
        <time>2013-12-05T15:22:26Z</time>
      </trkpt>
      <trkpt lat="46.62662" lon="5.52931">
        <ele>439.46</ele>
        <time>2013-12-05T15:22:36Z</time>
      </trkpt>
      <trkpt lat="46.62669" lon="5.52907">
        <ele>439.46</ele>
        <time>2013-12-05T15:22:52Z</time>
      </trkpt>
      <trkpt lat="46.62671" lon="5.52901">
        <ele>438.02</ele>
        <time>2013-12-05T15:22:56Z</time>
      </trkpt>
      <trkpt lat="46.62684" lon="5.52882">
        <ele>437.06</ele>
        <time>2013-12-05T15:23:13Z</time>
      </trkpt>
      <trkpt lat="46.627" lon="5.5287">
        <ele>435.61</ele>
        <time>2013-12-05T15:23:31Z</time>
      </trkpt>
      <trkpt lat="46.62711" lon="5.52876">
        <ele>435.61</ele>
        <time>2013-12-05T15:23:46Z</time>
      </trkpt>
      <trkpt lat="46.62727" lon="5.52883">
        <ele>437.06</ele>
        <time>2013-12-05T15:24:00Z</time>
      </trkpt>
      <trkpt lat="46.62746" lon="5.52891">
        <ele>438.02</ele>
        <time>2013-12-05T15:24:18Z</time>
      </trkpt>
      <trkpt lat="46.6276" lon="5.52893">
        <ele>438.5</ele>
        <time>2013-12-05T15:24:34Z</time>
      </trkpt>
      <trkpt lat="46.62768" lon="5.52895">
        <ele>438.5</ele>
        <time>2013-12-05T15:24:52Z</time>
      </trkpt>
      <trkpt lat="46.62777" lon="5.52894">
        <ele>438.5</ele>
        <time>2013-12-05T15:25:07Z</time>
      </trkpt>
      <trkpt lat="46.62781" lon="5.52895">
        <ele>438.5</ele>
        <time>2013-12-05T15:25:24Z</time>
      </trkpt>
      <trkpt lat="46.62782" lon="5.52904">
        <ele>438.5</ele>
        <time>2013-12-05T15:25:38Z</time>
      </trkpt>
      <trkpt lat="46.62782" lon="5.52899">
        <ele>438.5</ele>
        <time>2013-12-05T15:25:53Z</time>
      </trkpt>
      <trkpt lat="46.62783" lon="5.52906">
        <ele>438.5</ele>
        <time>2013-12-05T15:26:06Z</time>
      </trkpt>
      <trkpt lat="46.62784" lon="5.52909">
        <ele>437.54</ele>
        <time>2013-12-05T15:26:32Z</time>
      </trkpt>
      <trkpt lat="46.62783" lon="5.52909">
        <ele>437.54</ele>
        <time>2013-12-05T15:26:54Z</time>
      </trkpt>
    </trkseg>
  </trk>
</gpx>